Time,TemperatureF,DewpointF,PressureIn,WindDirection,WindDirectionDegrees,WindSpeedMPH,WindSpeedGustMPH,Humidity,HourlyPrecipIn,Conditions,Clouds,dailyrainin,SoftwareType,DateUTC
2013-12-15 00:00:00,3.1,-9.4,30.41,NW,315,0.0,0.0,55,0.00,,SKC,0.00,VWS V14.00,2013-12-15 08:00:00,
2013-12-15 00:01:00,3.2,-9.3,30.41,NW,315,2.0,2.0,55,0.00,,SKC,0.00,VWS V14.00,2013-12-15 08:01:00,
2013-12-15 00:02:00,3.2,-9.3,30.41,SW,225,2.2,2.2,55,0.00,,SKC,0.00,VWS V14.00,2013-12-15 08:02:00,
2013-12-15 00:04:00,3.1,-9.4,30.41,SW,225,2.0,2.0,55,0.00,,SKC,0.00,VWS V14.00,2013-12-15 08:04:00,
2013-12-15 00:05:00,3.1,-9.4,30.41,SW,225,0.0,0.0,55,0.00,,SKC,0.00,VWS V14.00,2013-12-15 08:05:00,
2013-12-15 00:06:00,2.9,-9.6,30.41,SW,225,1.6,1.6,55,0.00,,SKC,0.00,VWS V14.00,2013-12-15 08:06:00,
2013-12-15 00:07:00,2.9,-9.6,30.41,SW,225,0.0,0.0,55,0.00,,SKC,0.00,VWS V14.00,2013-12-15 08:07:00,
2013-12-15 00:09:00,2.7,-9.8,30.41,SW,225,1.1,1.1,55,0.00,,SKC,0.00,VWS V14.00,2013-12-15 08:09:00,
2013-12-15 00:10:00,2.7,-9.8,30.41,SW,225,1.3,1.3,55,0.00,,SKC,0.00,VWS V14.00,2013-12-15 08:10:00,
2013-12-15 00:11:00,2.7,-9.8,30.41,SW,225,1.6,1.6,55,0.00,,SKC,0.00,VWS V14.00,2013-12-15 08:11:00,
2013-12-15 00:12:00,2.5,-9.9,30.41,SW,225,0.0,0.0,55,0.00,,SKC,0.00,VWS V14.00,2013-12-15 08:12:00,
2013-12-15 00:13:00,2.5,-9.9,30.41,SW,225,0.0,0.0,55,0.00,,SKC,0.00,VWS V14.00,2013-12-15 08:13:00,
2013-12-15 00:14:00,2.5,-9.9,30.41,SW,225,0.0,0.0,55,0.00,,SKC,0.00,VWS V14.00,2013-12-15 08:14:00,
2013-12-15 00:15:00,2.7,-9.8,30.41,SW,225,0.0,0.0,55,0.00,,SKC,0.00,VWS V14.00,2013-12-15 08:15:00,
2013-12-15 00:16:00,2.7,-9.8,30.41,SW,225,0.0,0.0,55,0.00,,SKC,0.00,VWS V14.00,2013-12-15 08:16:00,
2013-12-15 00:17:00,2.7,-9.8,30.41,SW,225,0.0,0.0,55,0.00,,SKC,0.00,VWS V14.00,2013-12-15 08:17:00,
2013-12-15 00:18:00,2.7,-9.8,30.41,SW,225,0.0,0.0,55,0.00,,SKC,0.00,VWS V14.00,2013-12-15 08:18:00,
2013-12-15 00:19:00,2.9,-9.6,30.41,SW,225,0.0,0.0,55,0.00,,SKC,0.00,VWS V14.00,2013-12-15 08:19:00,
2013-12-15 00:21:00,2.9,-9.6,30.41,SW,225,0.0,0.0,55,0.00,,SKC,0.00,VWS V14.00,2013-12-15 08:21:00,
2013-12-15 00:22:00,2.9,-9.6,30.41,SW,225,0.0,0.0,55,0.00,,SKC,0.00,VWS V14.00,2013-12-15 08:22:00,
2013-12-15 00:23:00,2.9,-9.6,30.41,SW,225,0.0,0.0,55,0.00,,SKC,0.00,VWS V14.00,2013-12-15 08:23:00,
2013-12-15 00:24:00,2.9,-9.6,30.41,SW,225,0.0,0.0,55,0.00,,SKC,0.00,VWS V14.00,2013-12-15 08:24:00,
2013-12-15 00:26:00,2.9,-9.6,30.41,SW,225,0.0,0.0,55,0.00,,SKC,0.00,VWS V14.00,2013-12-15 08:26:00,
2013-12-15 00:27:00,2.9,-9.6,30.41,SW,225,0.0,0.0,55,0.00,,SKC,0.00,VWS V14.00,2013-12-15 08:27:00,
2013-12-15 00:28:00,2.7,-9.8,30.41,SW,225,0.0,0.0,55,0.00,,SKC,0.00,VWS V14.00,2013-12-15 08:28:00,
2013-12-15 00:29:00,2.7,-9.8,30.41,SW,225,0.0,0.0,55,0.00,,SKC,0.00,VWS V14.00,2013-12-15 08:29:00,
2013-12-15 00:31:00,2.5,-9.9,30.41,SW,225,0.0,0.0,55,0.00,,SKC,0.00,VWS V14.00,2013-12-15 08:31:00,
2013-12-15 00:32:00,2.5,-9.9,30.41,SW,225,0.0,0.0,55,0.00,,SKC,0.00,VWS V14.00,2013-12-15 08:32:00,
2013-12-15 00:33:00,2.5,-9.9,30.41,SW,225,0.0,0.0,55,0.00,,SKC,0.00,VWS V14.00,2013-12-15 08:33:00,
2013-12-15 00:34:00,2.5,-9.9,30.41,SW,225,0.0,0.0,55,0.00,,SKC,0.00,VWS V14.00,2013-12-15 08:34:00,
2013-12-15 00:36:00,2.3,-10.1,30.41,SW,225,0.0,0.0,55,0.00,,SKC,0.00,VWS V14.00,2013-12-15 08:36:00,
2013-12-15 00:37:00,2.3,-10.1,30.41,SW,225,0.0,0.0,55,0.00,,SKC,0.00,VWS V14.00,2013-12-15 08:37:00,
2013-12-15 00:38:00,2.3,-10.1,30.41,SW,225,0.0,0.0,55,0.00,,SKC,0.00,VWS V14.00,2013-12-15 08:38:00,
2013-12-15 00:39:00,2.2,-10.3,30.41,SW,225,0.0,0.0,55,0.00,,SKC,0.00,VWS V14.00,2013-12-15 08:39:00,
2013-12-15 00:42:00,2.2,-10.3,30.41,SW,225,0.0,0.0,55,0.00,,SKC,0.00,VWS V14.00,2013-12-15 08:42:00,
2013-12-15 00:43:00,2.2,-10.3,30.41,SW,225,0.0,0.0,55,0.00,,SKC,0.00,VWS V14.00,2013-12-15 08:43:00,
2013-12-15 00:44:00,2.5,-9.9,30.39,SW,225,0.0,0.0,55,0.00,,SKC,0.00,VWS V14.00,2013-12-15 08:44:00,
2013-12-15 00:47:00,2.5,-9.9,30.39,SW,225,0.0,0.0,55,0.00,,SKC,0.00,VWS V14.00,2013-12-15 08:47:00,
2013-12-15 00:48:00,2.3,-10.1,30.39,SW,225,0.0,0.0,55,0.00,,SKC,0.00,VWS V14.00,2013-12-15 08:48:00,
2013-12-15 00:49:00,2.3,-10.1,30.39,SW,225,0.0,0.0,55,0.00,,SKC,0.00,VWS V14.00,2013-12-15 08:49:00,
2013-12-15 00:50:00,2.5,-9.9,30.39,SW,225,0.0,0.0,55,0.00,,SKC,0.00,VWS V14.00,2013-12-15 08:50:00,
2013-12-15 00:52:00,2.5,-9.9,30.39,SW,225,0.0,0.0,55,0.00,,SKC,0.00,VWS V14.00,2013-12-15 08:52:00,
2013-12-15 00:53:00,2.5,-9.9,30.39,SW,225,0.0,0.0,55,0.00,,SKC,0.00,VWS V14.00,2013-12-15 08:53:00,
2013-12-15 00:54:00,2.5,-9.9,30.39,SW,225,0.0,0.0,55,0.00,,SKC,0.00,VWS V14.00,2013-12-15 08:54:00,
2013-12-15 00:55:00,2.5,-9.9,30.39,SW,225,0.0,0.0,55,0.00,,SKC,0.00,VWS V14.00,2013-12-15 08:55:00,
2013-12-15 00:57:00,2.5,-9.9,30.39,SW,225,0.0,0.0,55,0.00,,SKC,0.00,VWS V14.00,2013-12-15 08:57:00,
2013-12-15 00:58:00,2.5,-9.9,30.39,SW,225,2.2,2.2,55,0.00,,SKC,0.00,VWS V14.00,2013-12-15 08:58:00,
2013-12-15 00:59:00,2.7,-9.8,30.41,SW,225,2.2,2.2,55,0.00,,SKC,0.00,VWS V14.00,2013-12-15 08:59:00,
2013-12-15 01:00:00,2.7,-9.8,30.41,SW,225,0.0,0.0,55,0.00,,SKC,0.00,VWS V14.00,2013-12-15 09:00:00,
2013-12-15 01:02:00,2.9,-9.6,30.41,SW,225,0.0,0.0,55,0.00,,SKC,0.00,VWS V14.00,2013-12-15 09:02:00,
2013-12-15 01:03:00,2.9,-9.6,30.41,SW,225,0.0,0.0,55,0.00,,SKC,0.00,VWS V14.00,2013-12-15 09:03:00,
2013-12-15 01:04:00,3.1,-9.4,30.41,SW,225,0.0,0.0,55,0.00,,SKC,0.00,VWS V14.00,2013-12-15 09:04:00,
2013-12-15 01:06:00,3.1,-9.4,30.41,SW,225,0.0,0.0,55,0.00,,SKC,0.00,VWS V14.00,2013-12-15 09:06:00,
2013-12-15 01:07:00,3.2,-9.3,30.41,SW,225,0.0,0.0,55,0.00,,SKC,0.00,VWS V14.00,2013-12-15 09:07:00,
2013-12-15 01:08:00,3.2,-9.3,30.41,SW,225,0.0,0.0,55,0.00,,SKC,0.00,VWS V14.00,2013-12-15 09:08:00,
2013-12-15 01:09:00,3.4,-9.1,30.41,SW,225,0.0,0.0,55,0.00,,SKC,0.00,VWS V14.00,2013-12-15 09:09:00,
2013-12-15 01:10:00,3.4,-9.1,30.41,SW,225,0.0,0.0,55,0.00,,SKC,0.00,VWS V14.00,2013-12-15 09:10:00,
2013-12-15 01:11:00,3.4,-9.1,30.41,SW,225,0.0,0.0,55,0.00,,SKC,0.00,VWS V14.00,2013-12-15 09:11:00,
2013-12-15 01:12:00,3.6,-8.9,30.41,SW,225,0.0,0.0,55,0.00,,SKC,0.00,VWS V14.00,2013-12-15 09:12:00,
2013-12-15 01:13:00,3.6,-8.9,30.41,SW,225,0.0,0.0,55,0.00,,SKC,0.00,VWS V14.00,2013-12-15 09:13:00,
2013-12-15 01:14:00,3.6,-8.9,30.39,SW,225,0.0,0.0,55,0.00,,SKC,0.00,VWS V14.00,2013-12-15 09:14:00,
2013-12-15 01:15:00,3.6,-8.9,30.39,SW,225,0.0,0.0,55,0.00,,SKC,0.00,VWS V14.00,2013-12-15 09:15:00,
2013-12-15 01:16:00,3.4,-9.1,30.39,SW,225,0.0,0.0,55,0.00,,SKC,0.00,VWS V14.00,2013-12-15 09:16:00,
2013-12-15 01:18:00,3.4,-9.1,30.39,SW,225,0.0,0.0,55,0.00,,SKC,0.00,VWS V14.00,2013-12-15 09:18:00,
2013-12-15 01:19:00,3.4,-9.1,30.39,SW,225,0.0,0.0,55,0.00,,SKC,0.00,VWS V14.00,2013-12-15 09:19:00,
2013-12-15 01:20:00,3.4,-9.1,30.39,SW,225,0.0,0.0,55,0.00,,SKC,0.00,VWS V14.00,2013-12-15 09:20:00,
2013-12-15 01:21:00,3.1,-9.4,30.39,SW,225,0.0,0.0,55,0.00,,SKC,0.00,VWS V14.00,2013-12-15 09:21:00,
2013-12-15 01:23:00,2.9,-9.6,30.39,SW,225,0.0,0.0,55,0.00,,SKC,0.00,VWS V14.00,2013-12-15 09:23:00,
2013-12-15 01:24:00,2.9,-9.6,30.39,SW,225,0.0,0.0,55,0.00,,SKC,0.00,VWS V14.00,2013-12-15 09:24:00,
2013-12-15 01:25:00,2.7,-9.8,30.39,SW,225,0.0,0.0,55,0.00,,SKC,0.00,VWS V14.00,2013-12-15 09:25:00,
2013-12-15 01:27:00,2.5,-9.9,30.39,SW,225,0.0,0.0,55,0.00,,SKC,0.00,VWS V14.00,2013-12-15 09:27:00,
2013-12-15 01:28:00,2.5,-9.9,30.39,SW,225,0.0,0.0,55,0.00,,SKC,0.00,VWS V14.00,2013-12-15 09:28:00,
2013-12-15 01:29:00,2.5,-9.9,30.39,SW,225,0.0,0.0,55,0.00,,SKC,0.00,VWS V14.00,2013-12-15 09:29:00,
2013-12-15 01:30:00,2.5,-9.9,30.39,SW,225,0.0,0.0,55,0.00,,SKC,0.00,VWS V14.00,2013-12-15 09:30:00,
2013-12-15 01:32:00,2.5,-9.9,30.39,SW,225,0.0,0.0,55,0.00,,SKC,0.00,VWS V14.00,2013-12-15 09:32:00,
2013-12-15 01:33:00,2.5,-9.9,30.39,SW,225,0.0,0.0,55,0.00,,SKC,0.00,VWS V14.00,2013-12-15 09:33:00,
2013-12-15 01:34:00,2.5,-9.9,30.39,SW,225,0.0,0.0,55,0.00,,SKC,0.00,VWS V14.00,2013-12-15 09:34:00,
2013-12-15 01:35:00,2.5,-9.9,30.39,SW,225,0.0,0.0,55,0.00,,SKC,0.00,VWS V14.00,2013-12-15 09:35:00,
2013-12-15 01:36:00,2.5,-9.9,30.39,SW,225,0.0,0.0,55,0.00,,SKC,0.00,VWS V14.00,2013-12-15 09:36:00,
2013-12-15 01:38:00,2.7,-9.8,30.39,SW,225,0.0,0.0,55,0.00,,SKC,0.00,VWS V14.00,2013-12-15 09:38:00,
2013-12-15 01:39:00,2.7,-9.8,30.39,SW,225,0.0,0.0,55,0.00,,SKC,0.00,VWS V14.00,2013-12-15 09:39:00,
2013-12-15 01:40:00,2.7,-9.8,30.39,SW,225,0.0,0.0,55,0.00,,SKC,0.00,VWS V14.00,2013-12-15 09:40:00,
2013-12-15 01:41:00,2.5,-9.9,30.39,SW,225,0.0,0.0,55,0.00,,SKC,0.00,VWS V14.00,2013-12-15 09:41:00,
2013-12-15 01:43:00,2.5,-9.9,30.39,SW,225,0.0,0.0,55,0.00,,SKC,0.00,VWS V14.00,2013-12-15 09:43:00,
2013-12-15 01:44:00,2.5,-9.9,30.39,SW,225,0.0,0.0,55,0.00,,SKC,0.00,VWS V14.00,2013-12-15 09:44:00,
2013-12-15 01:45:00,2.5,-9.9,30.39,SW,225,0.0,0.0,55,0.00,,SKC,0.00,VWS V14.00,2013-12-15 09:45:00,
2013-12-15 01:46:00,2.5,-9.9,30.39,SW,225,0.0,0.0,55,0.00,,SKC,0.00,VWS V14.00,2013-12-15 09:46:00,
2013-12-15 01:48:00,2.2,-10.3,30.39,SW,225,0.0,0.0,55,0.00,,SKC,0.00,VWS V14.00,2013-12-15 09:48:00,
2013-12-15 01:49:00,2.2,-10.3,30.39,SW,225,0.0,0.0,55,0.00,,SKC,0.00,VWS V14.00,2013-12-15 09:49:00,
2013-12-15 01:50:00,2.2,-10.3,30.39,SW,225,0.0,0.0,55,0.00,,SKC,0.00,VWS V14.00,2013-12-15 09:50:00,
2013-12-15 01:51:00,2.0,-10.5,30.39,SW,225,0.0,0.0,55,0.00,,SKC,0.00,VWS V14.00,2013-12-15 09:51:00,
2013-12-15 01:53:00,2.0,-10.5,30.39,SW,225,0.0,0.0,55,0.00,,SKC,0.00,VWS V14.00,2013-12-15 09:53:00,
2013-12-15 01:54:00,1.8,-10.6,30.39,SW,225,0.0,0.0,55,0.00,,SKC,0.00,VWS V14.00,2013-12-15 09:54:00,
2013-12-15 01:55:00,1.8,-10.6,30.39,SW,225,0.0,0.0,55,0.00,,SKC,0.00,VWS V14.00,2013-12-15 09:55:00,
2013-12-15 01:56:00,1.8,-10.6,30.39,SW,225,0.0,0.0,55,0.00,,SKC,0.00,VWS V14.00,2013-12-15 09:56:00,
2013-12-15 01:59:00,2.0,-10.5,30.39,SW,225,0.0,0.0,55,0.00,,SKC,0.00,VWS V14.00,2013-12-15 09:59:00,
2013-12-15 02:00:00,2.0,-10.5,30.39,SW,225,0.0,0.0,55,0.00,,SKC,0.00,VWS V14.00,2013-12-15 10:00:00,
2013-12-15 02:01:00,2.0,-10.5,30.39,SW,225,0.0,0.0,55,0.00,,SKC,0.00,VWS V14.00,2013-12-15 10:01:00,
2013-12-15 02:04:00,2.0,-10.5,30.39,SW,225,0.0,0.0,55,0.00,,SKC,0.00,VWS V14.00,2013-12-15 10:04:00,
2013-12-15 02:05:00,1.8,-10.6,30.39,SW,225,0.0,0.0,55,0.00,,SKC,0.00,VWS V14.00,2013-12-15 10:05:00,
2013-12-15 02:06:00,1.8,-10.6,30.39,SW,225,0.0,0.0,55,0.00,,SKC,0.00,VWS V14.00,2013-12-15 10:06:00,
2013-12-15 02:09:00,1.4,-11.0,30.39,SW,225,0.0,0.0,55,0.00,,SKC,0.00,VWS V14.00,2013-12-15 10:09:00,
2013-12-15 02:10:00,1.4,-11.0,30.39,SW,225,0.0,0.0,55,0.00,,SKC,0.00,VWS V14.00,2013-12-15 10:10:00,
2013-12-15 02:11:00,1.4,-11.0,30.39,SW,225,0.0,0.0,55,0.00,,SKC,0.00,VWS V14.00,2013-12-15 10:11:00,
2013-12-15 02:12:00,1.4,-11.0,30.39,SW,225,0.0,0.0,55,0.00,,SKC,0.00,VWS V14.00,2013-12-15 10:12:00,
2013-12-15 02:14:00,1.3,-11.1,30.39,SW,225,0.0,0.0,55,0.00,,SKC,0.00,VWS V14.00,2013-12-15 10:14:00,
2013-12-15 02:16:00,1.3,-11.1,30.39,SW,225,0.0,0.0,55,0.00,,SKC,0.00,VWS V14.00,2013-12-15 10:16:00,
2013-12-15 02:17:00,1.4,-11.0,30.39,SW,225,0.0,0.0,55,0.00,,SKC,0.00,VWS V14.00,2013-12-15 10:17:00,
2013-12-15 02:19:00,1.4,-11.0,30.39,SW,225,0.0,0.0,55,0.00,,SKC,0.00,VWS V14.00,2013-12-15 10:19:00,
2013-12-15 02:21:00,1.4,-11.0,30.39,SW,225,0.0,0.0,55,0.00,,SKC,0.00,VWS V14.00,2013-12-15 10:21:00,
2013-12-15 02:22:00,1.4,-11.0,30.39,SW,225,0.0,0.0,55,0.00,,SKC,0.00,VWS V14.00,2013-12-15 10:22:00,
2013-12-15 02:24:00,1.4,-11.0,30.39,SW,225,0.0,0.0,55,0.00,,SKC,0.00,VWS V14.00,2013-12-15 10:24:00,
2013-12-15 02:25:00,1.4,-11.0,30.39,SW,225,0.0,0.0,55,0.00,,SKC,0.00,VWS V14.00,2013-12-15 10:25:00,
2013-12-15 02:26:00,1.6,-10.8,30.39,SW,225,0.0,0.0,55,0.00,,SKC,0.00,VWS V14.00,2013-12-15 10:26:00,
2013-12-15 02:27:00,1.6,-10.8,30.39,SW,225,0.0,0.0,55,0.00,,SKC,0.00,VWS V14.00,2013-12-15 10:27:00,
2013-12-15 02:29:00,1.8,-10.6,30.39,SW,225,0.0,0.0,55,0.00,,SKC,0.00,VWS V14.00,2013-12-15 10:29:00,
2013-12-15 02:30:00,1.8,-10.6,30.39,SW,225,0.0,0.0,55,0.00,,SKC,0.00,VWS V14.00,2013-12-15 10:30:00,
2013-12-15 02:32:00,1.8,-10.6,30.39,SW,225,0.0,0.0,55,0.00,,SKC,0.00,VWS V14.00,2013-12-15 10:32:00,
2013-12-15 02:35:00,1.6,-10.8,30.39,SW,225,0.0,0.0,55,0.00,,SKC,0.00,VWS V14.00,2013-12-15 10:35:00,
2013-12-15 02:37:00,1.6,-10.8,30.39,SW,225,0.0,0.0,55,0.00,,SKC,0.00,VWS V14.00,2013-12-15 10:37:00,
2013-12-15 02:40:00,1.4,-11.0,30.39,SW,225,0.0,0.0,55,0.00,,SKC,0.00,VWS V14.00,2013-12-15 10:40:00,
2013-12-15 02:41:00,1.4,-11.0,30.39,SW,225,0.0,0.0,55,0.00,,SKC,0.00,VWS V14.00,2013-12-15 10:41:00,
2013-12-15 02:42:00,1.4,-11.0,30.39,SW,225,0.0,0.0,55,0.00,,SKC,0.00,VWS V14.00,2013-12-15 10:42:00,
2013-12-15 02:45:00,1.3,-11.1,30.39,SW,225,0.0,0.0,55,0.00,,SKC,0.00,VWS V14.00,2013-12-15 10:45:00,
2013-12-15 02:46:00,1.3,-11.1,30.39,SW,225,0.0,0.0,55,0.00,,SKC,0.00,VWS V14.00,2013-12-15 10:46:00,
2013-12-15 02:47:00,1.3,-11.1,30.39,SW,225,0.0,0.0,55,0.00,,SKC,0.00,VWS V14.00,2013-12-15 10:47:00,
2013-12-15 02:48:00,1.3,-11.1,30.39,SW,225,0.0,0.0,55,0.00,,SKC,0.00,VWS V14.00,2013-12-15 10:48:00,
2013-12-15 02:50:00,1.1,-11.3,30.39,SW,225,0.0,0.0,55,0.00,,SKC,0.00,VWS V14.00,2013-12-15 10:50:00,
2013-12-15 02:51:00,1.1,-11.3,30.39,SW,225,0.0,0.0,55,0.00,,SKC,0.00,VWS V14.00,2013-12-15 10:51:00,
2013-12-15 02:52:00,1.1,-11.3,30.39,SW,225,0.0,0.0,55,0.00,,SKC,0.00,VWS V14.00,2013-12-15 10:52:00,
2013-12-15 02:53:00,1.1,-11.3,30.39,SW,225,0.0,0.0,55,0.00,,SKC,0.00,VWS V14.00,2013-12-15 10:53:00,
2013-12-15 02:54:00,1.1,-11.3,30.39,SW,225,0.0,0.0,55,0.00,,SKC,0.00,VWS V14.00,2013-12-15 10:54:00,
2013-12-15 02:55:00,1.1,-11.3,30.39,SW,225,0.0,0.0,55,0.00,,SKC,0.00,VWS V14.00,2013-12-15 10:55:00,
2013-12-15 02:57:00,1.1,-11.3,30.39,SW,225,0.0,0.0,55,0.00,,SKC,0.00,VWS V14.00,2013-12-15 10:57:00,
2013-12-15 02:58:00,1.3,-11.1,30.39,SW,225,0.0,0.0,55,0.00,,SKC,0.00,VWS V14.00,2013-12-15 10:58:00,
2013-12-15 02:59:00,1.1,-11.3,30.39,SW,225,0.0,0.0,55,0.00,,SKC,0.00,VWS V14.00,2013-12-15 10:59:00,
2013-12-15 03:01:00,1.1,-11.3,30.39,SW,225,0.0,0.0,55,0.00,,SKC,0.00,VWS V14.00,2013-12-15 11:01:00,
2013-12-15 03:02:00,1.1,-11.3,30.39,SW,225,0.0,0.0,55,0.00,,SKC,0.00,VWS V14.00,2013-12-15 11:02:00,
2013-12-15 03:03:00,1.1,-11.3,30.39,SW,225,0.0,0.0,55,0.00,,SKC,0.00,VWS V14.00,2013-12-15 11:03:00,
2013-12-15 03:04:00,0.9,-11.5,30.39,SW,225,0.0,0.0,55,0.00,,SKC,0.00,VWS V14.00,2013-12-15 11:04:00,
2013-12-15 03:06:00,0.9,-11.5,30.39,SW,225,0.0,0.0,55,0.00,,SKC,0.00,VWS V14.00,2013-12-15 11:06:00,
2013-12-15 03:07:00,0.9,-11.5,30.39,SW,225,0.0,0.0,55,0.00,,SKC,0.00,VWS V14.00,2013-12-15 11:07:00,
2013-12-15 03:08:00,0.9,-11.5,30.39,NNE,22,0.0,0.0,55,0.00,,SKC,0.00,VWS V14.00,2013-12-15 11:08:00,
2013-12-15 03:09:00,0.9,-11.5,30.39,NNE,22,0.0,0.0,55,0.00,,SKC,0.00,VWS V14.00,2013-12-15 11:09:00,
2013-12-15 03:11:00,1.3,-11.1,30.39,NNE,22,0.0,0.0,55,0.00,,SKC,0.00,VWS V14.00,2013-12-15 11:11:00,
2013-12-15 03:12:00,1.3,-11.1,30.39,NNE,22,0.0,0.0,55,0.00,,SKC,0.00,VWS V14.00,2013-12-15 11:12:00,
2013-12-15 03:13:00,1.3,-11.1,30.39,NNE,22,0.0,0.0,55,0.00,,SKC,0.00,VWS V14.00,2013-12-15 11:13:00,
2013-12-15 03:14:00,1.3,-11.1,30.39,NNE,22,0.0,0.0,55,0.00,,SKC,0.00,VWS V14.00,2013-12-15 11:14:00,
2013-12-15 03:16:00,1.4,-11.0,30.39,NNE,22,0.0,0.0,55,0.00,,SKC,0.00,VWS V14.00,2013-12-15 11:16:00,
2013-12-15 03:17:00,1.4,-11.0,30.39,NNE,22,0.0,0.0,55,0.00,,SKC,0.00,VWS V14.00,2013-12-15 11:17:00,
2013-12-15 03:18:00,1.4,-11.0,30.39,NNE,22,0.0,0.0,55,0.00,,SKC,0.00,VWS V14.00,2013-12-15 11:18:00,
2013-12-15 03:19:00,1.4,-11.0,30.39,NNE,22,0.0,0.0,55,0.00,,SKC,0.00,VWS V14.00,2013-12-15 11:19:00,
2013-12-15 03:22:00,1.3,-11.1,30.39,NNE,22,0.0,0.0,55,0.00,,SKC,0.00,VWS V14.00,2013-12-15 11:22:00,
2013-12-15 03:23:00,1.1,-11.3,30.39,NNE,22,0.0,0.0,55,0.00,,SKC,0.00,VWS V14.00,2013-12-15 11:23:00,
2013-12-15 03:24:00,1.1,-11.3,30.39,NNE,22,0.0,0.0,55,0.00,,SKC,0.00,VWS V14.00,2013-12-15 11:24:00,
2013-12-15 03:25:00,1.1,-11.3,30.39,NNE,22,0.0,0.0,55,0.00,,SKC,0.00,VWS V14.00,2013-12-15 11:25:00,
2013-12-15 03:27:00,1.1,-11.3,30.39,NNE,22,0.0,0.0,55,0.00,,SKC,0.00,VWS V14.00,2013-12-15 11:27:00,
2013-12-15 03:28:00,1.3,-11.1,30.39,NNE,22,0.0,0.0,55,0.00,,SKC,0.00,VWS V14.00,2013-12-15 11:28:00,
2013-12-15 03:29:00,1.3,-11.1,30.36,NNE,22,0.0,0.0,55,0.00,,SKC,0.00,VWS V14.00,2013-12-15 11:29:00,
2013-12-15 03:30:00,1.3,-11.1,30.36,NNE,22,0.0,0.0,55,0.00,,SKC,0.00,VWS V14.00,2013-12-15 11:30:00,
2013-12-15 03:32:00,1.1,-11.3,30.36,NNE,22,0.0,0.0,55,0.00,,SKC,0.00,VWS V14.00,2013-12-15 11:32:00,
2013-12-15 03:33:00,0.5,-11.8,30.36,NNE,22,0.0,0.0,55,0.00,,SKC,0.00,VWS V14.00,2013-12-15 11:33:00,
2013-12-15 03:34:00,0.5,-11.8,30.36,NNE,22,0.0,0.0,55,0.00,,SKC,0.00,VWS V14.00,2013-12-15 11:34:00,
2013-12-15 03:35:00,0.4,-12.0,30.36,NNE,22,0.0,0.0,55,0.00,,SKC,0.00,VWS V14.00,2013-12-15 11:35:00,
2013-12-15 03:36:00,0.4,-12.0,30.36,NNE,22,0.0,0.0,55,0.00,,SKC,0.00,VWS V14.00,2013-12-15 11:36:00,
2013-12-15 03:37:00,0.0,-12.3,30.36,NNE,22,0.0,0.0,55,0.00,,SKC,0.00,VWS V14.00,2013-12-15 11:37:00,
2013-12-15 03:38:00,0.0,-12.3,30.36,NNE,22,0.0,0.0,55,0.00,,SKC,0.00,VWS V14.00,2013-12-15 11:38:00,
2013-12-15 03:39:00,-0.2,-12.5,30.36,NNE,22,0.0,0.0,55,0.00,,SKC,0.00,VWS V14.00,2013-12-15 11:39:00,
2013-12-15 03:41:00,-0.4,-12.7,30.36,NNE,22,0.0,0.0,55,0.00,,SKC,0.00,VWS V14.00,2013-12-15 11:41:00,
2013-12-15 03:42:00,-0.4,-12.7,30.36,NNE,22,0.0,0.0,55,0.00,,SKC,0.00,VWS V14.00,2013-12-15 11:42:00,
2013-12-15 03:43:00,-0.5,-12.8,30.36,NNE,22,0.0,0.0,55,0.00,,SKC,0.00,VWS V14.00,2013-12-15 11:43:00,
2013-12-15 03:45:00,-0.5,-12.8,30.36,NNE,22,0.0,0.0,55,0.00,,SKC,0.00,VWS V14.00,2013-12-15 11:45:00,
2013-12-15 03:46:00,-0.5,-12.8,30.36,NNE,22,0.0,0.0,55,0.00,,SKC,0.00,VWS V14.00,2013-12-15 11:46:00,
2013-12-15 03:47:00,-0.5,-12.8,30.36,NNE,22,0.0,0.0,55,0.00,,SKC,0.00,VWS V14.00,2013-12-15 11:47:00,
2013-12-15 03:48:00,-0.7,-13.0,30.36,NNE,22,0.0,0.0,55,0.00,,SKC,0.00,VWS V14.00,2013-12-15 11:48:00,
2013-12-15 03:50:00,-0.9,-13.2,30.36,NNE,22,0.0,0.0,55,0.00,,SKC,0.00,VWS V14.00,2013-12-15 11:50:00,
2013-12-15 03:52:00,-1.1,-13.3,30.36,NNE,22,0.0,0.0,55,0.00,,SKC,0.00,VWS V14.00,2013-12-15 11:52:00,
2013-12-15 03:53:00,-1.1,-13.3,30.36,NNE,22,0.0,0.0,55,0.00,,SKC,0.00,VWS V14.00,2013-12-15 11:53:00,
2013-12-15 03:55:00,-1.1,-13.3,30.36,SSE,158,0.0,0.0,55,0.00,,SKC,0.00,VWS V14.00,2013-12-15 11:55:00,
2013-12-15 03:57:00,-1.1,-13.3,30.36,SSE,158,0.0,0.0,55,0.00,,SKC,0.00,VWS V14.00,2013-12-15 11:57:00,
2013-12-15 03:58:00,-0.9,-13.2,30.36,SSE,158,0.0,0.0,55,0.00,,SKC,0.00,VWS V14.00,2013-12-15 11:58:00,
2013-12-15 03:59:00,-0.9,-13.2,30.36,SSE,158,0.0,0.0,55,0.00,,SKC,0.00,VWS V14.00,2013-12-15 11:59:00,
2013-12-15 04:00:00,-0.5,-12.8,30.36,SSE,158,0.0,0.0,55,0.00,,SKC,0.00,VWS V14.00,2013-12-15 12:00:00,
2013-12-15 04:02:00,-0.5,-12.8,30.36,SSE,158,0.0,0.0,55,0.00,,SKC,0.00,VWS V14.00,2013-12-15 12:02:00,
2013-12-15 04:03:00,-0.5,-12.8,30.36,SSE,158,0.0,0.0,55,0.00,,SKC,0.00,VWS V14.00,2013-12-15 12:03:00,
2013-12-15 04:04:00,-0.5,-12.8,30.36,SSE,158,0.0,0.0,55,0.00,,SKC,0.00,VWS V14.00,2013-12-15 12:04:00,
2013-12-15 04:05:00,-0.5,-12.8,30.36,SSE,158,0.0,0.0,55,0.00,,SKC,0.00,VWS V14.00,2013-12-15 12:05:00,
2013-12-15 04:07:00,-0.5,-12.8,30.36,SSE,158,0.0,0.0,55,0.00,,SKC,0.00,VWS V14.00,2013-12-15 12:07:00,
2013-12-15 04:08:00,-0.5,-12.8,30.36,SSE,158,0.0,0.0,55,0.00,,SKC,0.00,VWS V14.00,2013-12-15 12:08:00,
2013-12-15 04:09:00,-0.5,-12.8,30.36,SSE,158,0.0,0.0,55,0.00,,SKC,0.00,VWS V14.00,2013-12-15 12:09:00,
2013-12-15 04:10:00,-0.9,-13.2,30.36,SSE,158,0.0,0.0,55,0.00,,SKC,0.00,VWS V14.00,2013-12-15 12:10:00,
2013-12-15 04:12:00,-0.9,-13.2,30.36,SSE,158,0.0,0.0,55,0.00,,SKC,0.00,VWS V14.00,2013-12-15 12:12:00,
2013-12-15 04:13:00,-0.9,-13.2,30.36,SSE,158,0.0,0.0,55,0.00,,SKC,0.00,VWS V14.00,2013-12-15 12:13:00,
2013-12-15 04:14:00,-0.9,-13.2,30.36,SSE,158,0.0,0.0,55,0.00,,SKC,0.00,VWS V14.00,2013-12-15 12:14:00,
2013-12-15 04:15:00,-0.9,-13.2,30.36,SSE,158,0.0,0.0,55,0.00,,SKC,0.00,VWS V14.00,2013-12-15 12:15:00,
2013-12-15 04:17:00,-1.1,-13.3,30.36,SSE,158,0.0,0.0,55,0.00,,SKC,0.00,VWS V14.00,2013-12-15 12:17:00,
2013-12-15 04:18:00,-1.1,-13.3,30.36,SSE,158,0.0,0.0,55,0.00,,SKC,0.00,VWS V14.00,2013-12-15 12:18:00,
2013-12-15 04:19:00,-1.1,-13.3,30.36,SSE,158,0.0,0.0,55,0.00,,SKC,0.00,VWS V14.00,2013-12-15 12:19:00,
2013-12-15 04:20:00,-1.1,-13.3,30.36,NE,45,0.0,0.0,55,0.00,,SKC,0.00,VWS V14.00,2013-12-15 12:20:00,
2013-12-15 04:23:00,-1.1,-13.3,30.36,NE,45,0.0,0.0,55,0.00,,SKC,0.00,VWS V14.00,2013-12-15 12:23:00,
2013-12-15 04:24:00,-1.1,-13.3,30.36,NE,45,0.0,0.0,55,0.00,,SKC,0.00,VWS V14.00,2013-12-15 12:24:00,
2013-12-15 04:25:00,-1.1,-13.3,30.36,NE,45,0.0,0.0,55,0.00,,SKC,0.00,VWS V14.00,2013-12-15 12:25:00,
2013-12-15 04:26:00,-1.3,-13.5,30.36,NE,45,0.0,0.0,55,0.00,,SKC,0.00,VWS V14.00,2013-12-15 12:26:00,
2013-12-15 04:28:00,-1.3,-13.5,30.36,NE,45,0.0,0.0,55,0.00,,SKC,0.00,VWS V14.00,2013-12-15 12:28:00,
2013-12-15 04:29:00,-1.3,-13.5,30.36,NE,45,0.0,0.0,55,0.00,,SKC,0.00,VWS V14.00,2013-12-15 12:29:00,
2013-12-15 04:30:00,-1.3,-13.5,30.36,NE,45,0.0,0.0,55,0.00,,SKC,0.00,VWS V14.00,2013-12-15 12:30:00,
2013-12-15 04:31:00,-1.3,-13.5,30.36,NE,45,0.0,0.0,55,0.00,,SKC,0.00,VWS V14.00,2013-12-15 12:31:00,
2013-12-15 04:33:00,-1.4,-13.7,30.36,NE,45,0.0,0.0,55,0.00,,SKC,0.00,VWS V14.00,2013-12-15 12:33:00,
2013-12-15 04:34:00,-1.4,-13.7,30.36,NE,45,0.0,0.0,55,0.00,,SKC,0.00,VWS V14.00,2013-12-15 12:34:00,
2013-12-15 04:35:00,-1.4,-13.7,30.36,NE,45,0.0,0.0,55,0.00,,SKC,0.00,VWS V14.00,2013-12-15 12:35:00,
2013-12-15 04:36:00,-1.4,-13.7,30.36,NE,45,0.0,0.0,55,0.00,,SKC,0.00,VWS V14.00,2013-12-15 12:36:00,
2013-12-15 04:38:00,-1.3,-13.5,30.36,NE,45,0.0,0.0,55,0.00,,SKC,0.00,VWS V14.00,2013-12-15 12:38:00,
2013-12-15 04:39:00,-1.3,-13.5,30.36,NE,45,0.0,0.0,55,0.00,,SKC,0.00,VWS V14.00,2013-12-15 12:39:00,
2013-12-15 04:40:00,-1.3,-13.5,30.36,NE,45,0.0,0.0,55,0.00,,SKC,0.00,VWS V14.00,2013-12-15 12:40:00,
2013-12-15 04:41:00,-1.1,-13.3,30.36,NE,45,0.0,0.0,55,0.00,,SKC,0.00,VWS V14.00,2013-12-15 12:41:00,
2013-12-15 04:44:00,-0.9,-13.2,30.36,NE,45,0.0,0.0,55,0.00,,SKC,0.00,VWS V14.00,2013-12-15 12:44:00,
2013-12-15 04:45:00,-0.9,-13.2,30.36,NE,45,0.0,0.0,55,0.00,,SKC,0.00,VWS V14.00,2013-12-15 12:45:00,
2013-12-15 04:46:00,-0.9,-13.2,30.36,NE,45,0.0,0.0,55,0.00,,SKC,0.00,VWS V14.00,2013-12-15 12:46:00,
2013-12-15 04:49:00,-0.9,-13.2,30.36,NE,45,0.0,0.0,55,0.00,,SKC,0.00,VWS V14.00,2013-12-15 12:49:00,
2013-12-15 04:50:00,-0.7,-13.0,30.36,NE,45,0.0,0.0,55,0.00,,SKC,0.00,VWS V14.00,2013-12-15 12:50:00,
2013-12-15 04:52:00,-0.7,-13.0,30.36,NE,45,0.0,0.0,55,0.00,,SKC,0.00,VWS V14.00,2013-12-15 12:52:00,
2013-12-15 04:54:00,-0.7,-13.0,30.36,NE,45,0.0,0.0,55,0.00,,SKC,0.00,VWS V14.00,2013-12-15 12:54:00,
2013-12-15 04:55:00,-0.9,-13.2,30.36,NE,45,0.0,0.0,55,0.00,,SKC,0.00,VWS V14.00,2013-12-15 12:55:00,
2013-12-15 04:57:00,-0.9,-13.2,30.36,NE,45,0.0,0.0,55,0.00,,SKC,0.00,VWS V14.00,2013-12-15 12:57:00,
2013-12-15 04:59:00,-0.9,-13.2,30.36,NE,45,0.0,0.0,55,0.00,,SKC,0.00,VWS V14.00,2013-12-15 12:59:00,
2013-12-15 05:00:00,-0.9,-13.2,30.36,NE,45,0.0,0.0,55,0.00,,SKC,0.00,VWS V14.00,2013-12-15 13:00:00,
2013-12-15 05:01:00,-0.9,-13.2,30.36,NE,45,0.0,0.0,55,0.00,,SKC,0.00,VWS V14.00,2013-12-15 13:01:00,
2013-12-15 05:02:00,-1.1,-13.3,30.36,NE,45,0.0,0.0,55,0.00,,SKC,0.00,VWS V14.00,2013-12-15 13:02:00,
2013-12-15 05:04:00,-1.1,-13.3,30.36,NE,45,0.0,0.0,55,0.00,,SKC,0.00,VWS V14.00,2013-12-15 13:04:00,
2013-12-15 05:05:00,-1.1,-13.3,30.36,NE,45,0.0,0.0,55,0.00,,SKC,0.00,VWS V14.00,2013-12-15 13:05:00,
2013-12-15 05:06:00,-1.1,-13.3,30.36,NE,45,0.0,0.0,55,0.00,,SKC,0.00,VWS V14.00,2013-12-15 13:06:00,
2013-12-15 05:07:00,-0.9,-13.2,30.36,NE,45,0.0,0.0,55,0.00,,SKC,0.00,VWS V14.00,2013-12-15 13:07:00,
2013-12-15 05:09:00,-0.9,-13.2,30.36,NE,45,0.0,0.0,55,0.00,,SKC,0.00,VWS V14.00,2013-12-15 13:09:00,
2013-12-15 05:10:00,-0.9,-13.2,30.36,NE,45,0.0,0.0,55,0.00,,SKC,0.00,VWS V14.00,2013-12-15 13:10:00,
2013-12-15 05:11:00,-0.9,-13.2,30.36,NE,45,0.0,0.0,55,0.00,,SKC,0.00,VWS V14.00,2013-12-15 13:11:00,
2013-12-15 05:12:00,-0.9,-13.2,30.36,NE,45,0.0,0.0,55,0.00,,SKC,0.00,VWS V14.00,2013-12-15 13:12:00,
2013-12-15 05:13:00,-0.9,-13.2,30.36,NE,45,0.0,0.0,55,0.00,,SKC,0.00,VWS V14.00,2013-12-15 13:13:00,
2013-12-15 05:14:00,-0.9,-13.2,30.36,NE,45,0.0,0.0,55,0.00,,SKC,0.00,VWS V14.00,2013-12-15 13:14:00,
2013-12-15 05:15:00,-0.9,-13.2,30.36,NE,45,0.0,0.0,55,0.00,,SKC,0.00,VWS V14.00,2013-12-15 13:15:00,
2013-12-15 05:16:00,-1.1,-13.3,30.36,NE,45,0.0,0.0,55,0.00,,SKC,0.00,VWS V14.00,2013-12-15 13:16:00,
2013-12-15 05:17:00,-1.1,-13.3,30.36,NE,45,0.0,0.0,55,0.00,,SKC,0.00,VWS V14.00,2013-12-15 13:17:00,
2013-12-15 05:18:00,-1.3,-13.5,30.36,NE,45,0.0,0.0,55,0.00,,SKC,0.00,VWS V14.00,2013-12-15 13:18:00,
2013-12-15 05:19:00,-1.3,-13.5,30.36,NE,45,0.0,0.0,55,0.00,,SKC,0.00,VWS V14.00,2013-12-15 13:19:00,
2013-12-15 05:20:00,-1.3,-13.5,30.36,NE,45,0.0,0.0,55,0.00,,SKC,0.00,VWS V14.00,2013-12-15 13:20:00,
2013-12-15 05:21:00,-1.4,-13.7,30.36,NE,45,0.0,0.0,55,0.00,,SKC,0.00,VWS V14.00,2013-12-15 13:21:00,
2013-12-15 05:23:00,-1.6,-13.8,30.36,NE,45,0.0,0.0,55,0.00,,SKC,0.00,VWS V14.00,2013-12-15 13:23:00,
2013-12-15 05:24:00,-1.8,-14.0,30.36,NE,45,0.0,0.0,55,0.00,,SKC,0.00,VWS V14.00,2013-12-15 13:24:00,
2013-12-15 05:26:00,-1.8,-14.0,30.36,NE,45,0.0,0.0,55,0.00,,SKC,0.00,VWS V14.00,2013-12-15 13:26:00,
2013-12-15 05:28:00,-1.8,-14.0,30.36,NE,45,0.0,0.0,55,0.00,,SKC,0.00,VWS V14.00,2013-12-15 13:28:00,
2013-12-15 05:29:00,-1.8,-14.0,30.36,NE,45,0.0,0.0,55,0.00,,SKC,0.00,VWS V14.00,2013-12-15 13:29:00,
2013-12-15 05:31:00,-1.8,-14.0,30.36,NE,45,0.0,0.0,55,0.00,,SKC,0.00,VWS V14.00,2013-12-15 13:31:00,
2013-12-15 05:33:00,-2.0,-14.2,30.36,NE,45,0.0,0.0,55,0.00,,SKC,0.00,VWS V14.00,2013-12-15 13:33:00,
2013-12-15 05:34:00,-2.0,-14.2,30.36,NE,45,0.0,0.0,55,0.00,,SKC,0.00,VWS V14.00,2013-12-15 13:34:00,
2013-12-15 05:36:00,-2.0,-14.2,30.36,NE,45,0.0,0.0,55,0.00,,SKC,0.00,VWS V14.00,2013-12-15 13:36:00,
2013-12-15 05:37:00,-2.0,-14.2,30.36,NE,45,0.0,0.0,55,0.00,,SKC,0.00,VWS V14.00,2013-12-15 13:37:00,
2013-12-15 05:38:00,-2.0,-14.2,30.36,NE,45,0.0,0.0,55,0.00,,SKC,0.00,VWS V14.00,2013-12-15 13:38:00,
2013-12-15 05:39:00,-2.0,-14.2,30.36,NE,45,0.0,0.0,55,0.00,,SKC,0.00,VWS V14.00,2013-12-15 13:39:00,
2013-12-15 05:41:00,-2.0,-14.2,30.36,NE,45,0.0,0.0,55,0.00,,SKC,0.00,VWS V14.00,2013-12-15 13:41:00,
2013-12-15 05:42:00,-2.2,-14.4,30.36,NE,45,0.0,0.0,55,0.00,,SKC,0.00,VWS V14.00,2013-12-15 13:42:00,
2013-12-15 05:43:00,-2.2,-14.4,30.36,NE,45,0.0,0.0,55,0.00,,SKC,0.00,VWS V14.00,2013-12-15 13:43:00,
2013-12-15 05:44:00,-2.2,-14.4,30.36,NE,45,0.0,0.0,55,0.00,,SKC,0.00,VWS V14.00,2013-12-15 13:44:00,
2013-12-15 05:45:00,-2.2,-14.4,30.36,NE,45,0.0,0.0,55,0.00,,SKC,0.00,VWS V14.00,2013-12-15 13:45:00,
2013-12-15 05:46:00,-2.2,-14.4,30.36,NE,45,0.0,0.0,55,0.00,,SKC,0.00,VWS V14.00,2013-12-15 13:46:00,
2013-12-15 05:47:00,-2.2,-14.4,30.36,NE,45,0.0,0.0,55,0.00,,SKC,0.00,VWS V14.00,2013-12-15 13:47:00,
2013-12-15 05:49:00,-2.2,-14.4,30.36,NE,45,0.0,0.0,55,0.00,,SKC,0.00,VWS V14.00,2013-12-15 13:49:00,
2013-12-15 05:50:00,-2.3,-14.5,30.36,NE,45,0.0,0.0,55,0.00,,SKC,0.00,VWS V14.00,2013-12-15 13:50:00,
2013-12-15 05:51:00,-2.3,-14.5,30.36,NW,315,0.0,0.0,55,0.00,,SKC,0.00,VWS V14.00,2013-12-15 13:51:00,
2013-12-15 05:52:00,-2.3,-14.5,30.36,NW,315,0.0,0.0,55,0.00,,SKC,0.00,VWS V14.00,2013-12-15 13:52:00,
2013-12-15 05:54:00,-2.3,-14.5,30.36,NW,315,0.0,0.0,55,0.00,,SKC,0.00,VWS V14.00,2013-12-15 13:54:00,
2013-12-15 05:55:00,-2.3,-14.5,30.36,NW,315,0.0,0.0,55,0.00,,SKC,0.00,VWS V14.00,2013-12-15 13:55:00,
2013-12-15 05:56:00,-2.3,-14.5,30.36,NW,315,0.0,0.0,55,0.00,,SKC,0.00,VWS V14.00,2013-12-15 13:56:00,
2013-12-15 05:57:00,-2.3,-14.5,30.36,NW,315,0.0,0.0,55,0.00,,SKC,0.00,VWS V14.00,2013-12-15 13:57:00,
2013-12-15 06:00:00,-2.3,-14.5,30.36,NW,315,0.0,0.0,55,0.00,,SKC,0.00,VWS V14.00,2013-12-15 14:00:00,
2013-12-15 06:01:00,-2.3,-14.5,30.36,NW,315,0.0,0.0,55,0.00,,SKC,0.00,VWS V14.00,2013-12-15 14:01:00,
2013-12-15 06:02:00,-2.3,-14.5,30.36,NW,315,0.0,0.0,55,0.00,,SKC,0.00,VWS V14.00,2013-12-15 14:02:00,
2013-12-15 06:03:00,-2.2,-14.4,30.36,NW,315,0.0,0.0,55,0.00,,SKC,0.00,VWS V14.00,2013-12-15 14:03:00,
2013-12-15 06:05:00,-2.2,-14.4,30.36,NW,315,0.0,0.0,55,0.00,,SKC,0.00,VWS V14.00,2013-12-15 14:05:00,
2013-12-15 06:07:00,-2.2,-14.4,30.36,NW,315,0.0,0.0,55,0.00,,SKC,0.00,VWS V14.00,2013-12-15 14:07:00,
2013-12-15 06:08:00,-2.2,-14.4,30.36,NW,315,0.0,0.0,55,0.00,,SKC,0.00,VWS V14.00,2013-12-15 14:08:00,
2013-12-15 06:10:00,-2.2,-14.4,30.36,NW,315,0.0,0.0,55,0.00,,SKC,0.00,VWS V14.00,2013-12-15 14:10:00,
2013-12-15 06:11:00,-2.0,-14.2,30.36,NW,315,0.0,0.0,55,0.00,,SKC,0.00,VWS V14.00,2013-12-15 14:11:00,
2013-12-15 06:12:00,-2.0,-14.2,30.36,NW,315,0.0,0.0,55,0.00,,SKC,0.00,VWS V14.00,2013-12-15 14:12:00,
2013-12-15 06:13:00,-2.0,-14.2,30.36,NW,315,0.0,0.0,55,0.00,,SKC,0.00,VWS V14.00,2013-12-15 14:13:00,
2013-12-15 06:15:00,-1.8,-14.0,30.36,NW,315,0.0,0.0,55,0.00,,SKC,0.00,VWS V14.00,2013-12-15 14:15:00,
2013-12-15 06:16:00,-1.8,-14.0,30.36,NW,315,0.0,0.0,55,0.00,,SKC,0.00,VWS V14.00,2013-12-15 14:16:00,
2013-12-15 06:17:00,-1.8,-14.0,30.36,NW,315,0.0,0.0,55,0.00,,SKC,0.00,VWS V14.00,2013-12-15 14:17:00,
2013-12-15 06:18:00,-1.8,-14.0,30.36,NW,315,0.0,0.0,55,0.00,,SKC,0.00,VWS V14.00,2013-12-15 14:18:00,
2013-12-15 06:20:00,-1.8,-14.0,30.36,NW,315,0.0,0.0,55,0.00,,SKC,0.00,VWS V14.00,2013-12-15 14:20:00,
2013-12-15 06:21:00,-1.8,-14.0,30.36,NW,315,0.0,0.0,55,0.00,,SKC,0.00,VWS V14.00,2013-12-15 14:21:00,
2013-12-15 06:22:00,-1.8,-14.0,30.36,NW,315,0.0,0.0,55,0.00,,SKC,0.00,VWS V14.00,2013-12-15 14:22:00,
2013-12-15 06:23:00,-2.0,-14.2,30.36,NW,315,0.0,0.0,55,0.00,,SKC,0.00,VWS V14.00,2013-12-15 14:23:00,
2013-12-15 06:25:00,-2.0,-14.2,30.36,NW,315,0.0,0.0,55,0.00,,SKC,0.00,VWS V14.00,2013-12-15 14:25:00,
2013-12-15 06:26:00,-2.0,-14.2,30.36,NW,315,0.0,0.0,55,0.00,,SKC,0.00,VWS V14.00,2013-12-15 14:26:00,
2013-12-15 06:27:00,-2.0,-14.2,30.36,NW,315,0.0,0.0,55,0.00,,SKC,0.00,VWS V14.00,2013-12-15 14:27:00,
2013-12-15 06:28:00,-2.0,-14.2,30.36,NW,315,0.0,0.0,55,0.00,,SKC,0.00,VWS V14.00,2013-12-15 14:28:00,
2013-12-15 06:29:00,-1.8,-14.0,30.36,NW,315,0.0,0.0,55,0.00,,SKC,0.00,VWS V14.00,2013-12-15 14:29:00,
2013-12-15 06:30:00,-1.8,-14.0,30.36,NW,315,0.0,0.0,55,0.00,,SKC,0.00,VWS V14.00,2013-12-15 14:30:00,
2013-12-15 06:31:00,-1.8,-14.0,30.36,NW,315,0.0,0.0,55,0.00,,SKC,0.00,VWS V14.00,2013-12-15 14:31:00,
2013-12-15 06:32:00,-1.8,-14.0,30.36,NW,315,0.0,0.0,55,0.00,,SKC,0.00,VWS V14.00,2013-12-15 14:32:00,
2013-12-15 06:33:00,-2.0,-14.2,30.36,NW,315,0.0,0.0,55,0.00,,SKC,0.00,VWS V14.00,2013-12-15 14:33:00,
2013-12-15 06:34:00,-2.2,-14.4,30.36,NW,315,0.0,0.0,55,0.00,,SKC,0.00,VWS V14.00,2013-12-15 14:34:00,
2013-12-15 06:35:00,-2.2,-14.4,30.36,NW,315,0.0,0.0,55,0.00,,SKC,0.00,VWS V14.00,2013-12-15 14:35:00,
2013-12-15 06:37:00,-2.2,-14.4,30.36,NW,315,0.0,0.0,55,0.00,,SKC,0.00,VWS V14.00,2013-12-15 14:37:00,
2013-12-15 06:39:00,-2.2,-14.4,30.36,NW,315,0.0,0.0,55,0.00,,SKC,0.00,VWS V14.00,2013-12-15 14:39:00,
2013-12-15 06:40:00,-2.3,-14.5,30.36,NW,315,0.0,0.0,55,0.00,,SKC,0.00,VWS V14.00,2013-12-15 14:40:00,
2013-12-15 06:42:00,-2.3,-14.5,30.36,NW,315,0.0,0.0,55,0.00,,SKC,0.00,VWS V14.00,2013-12-15 14:42:00,
2013-12-15 06:44:00,-2.3,-14.5,30.36,NW,315,0.0,0.0,55,0.00,,SKC,0.00,VWS V14.00,2013-12-15 14:44:00,
2013-12-15 06:45:00,-2.3,-14.5,30.36,NW,315,0.0,0.0,55,0.00,,SKC,0.00,VWS V14.00,2013-12-15 14:45:00,
2013-12-15 06:47:00,-2.5,-14.7,30.36,NW,315,0.0,0.0,55,0.00,,SKC,0.00,VWS V14.00,2013-12-15 14:47:00,
2013-12-15 06:49:00,-2.5,-14.7,30.36,NW,315,0.0,0.0,55,0.00,,SKC,0.00,VWS V14.00,2013-12-15 14:49:00,
2013-12-15 06:50:00,-2.5,-14.7,30.36,NW,315,0.0,0.0,55,0.00,,SKC,0.00,VWS V14.00,2013-12-15 14:50:00,
2013-12-15 06:52:00,-2.5,-14.7,30.36,NW,315,0.0,0.0,55,0.00,,SKC,0.00,VWS V14.00,2013-12-15 14:52:00,
2013-12-15 06:55:00,-2.5,-14.7,30.36,NW,315,0.0,0.0,55,0.00,,SKC,0.00,VWS V14.00,2013-12-15 14:55:00,
2013-12-15 06:56:00,-2.5,-14.7,30.36,NW,315,0.0,0.0,55,0.00,,SKC,0.00,VWS V14.00,2013-12-15 14:56:00,
2013-12-15 06:57:00,-2.5,-14.7,30.36,NW,315,0.0,0.0,55,0.00,,SKC,0.00,VWS V14.00,2013-12-15 14:57:00,
2013-12-15 06:58:00,-2.5,-14.7,30.36,NW,315,0.0,0.0,55,0.00,,SKC,0.00,VWS V14.00,2013-12-15 14:58:00,
2013-12-15 07:00:00,-2.5,-14.7,30.36,NW,315,0.0,0.0,55,0.00,,SKC,0.00,VWS V14.00,2013-12-15 15:00:00,
2013-12-15 07:01:00,-2.5,-14.7,30.36,NW,315,0.0,0.0,55,0.00,,SKC,0.00,VWS V14.00,2013-12-15 15:01:00,
2013-12-15 07:02:00,-2.5,-14.7,30.36,NW,315,0.0,0.0,55,0.00,,SKC,0.00,VWS V14.00,2013-12-15 15:02:00,
2013-12-15 07:03:00,-2.5,-14.7,30.36,NW,315,0.0,0.0,55,0.00,,SKC,0.00,VWS V14.00,2013-12-15 15:03:00,
2013-12-15 07:05:00,-2.7,-14.9,30.36,NW,315,0.0,0.0,55,0.00,,SKC,0.00,VWS V14.00,2013-12-15 15:05:00,
2013-12-15 07:06:00,-2.7,-14.9,30.36,NW,315,0.0,0.0,55,0.00,,SKC,0.00,VWS V14.00,2013-12-15 15:06:00,
2013-12-15 07:08:00,-2.9,-15.0,30.36,NW,315,0.0,0.0,55,0.00,,SKC,0.00,VWS V14.00,2013-12-15 15:08:00,
2013-12-15 07:10:00,-3.1,-15.2,30.36,NW,315,0.0,0.0,55,0.00,,SKC,0.00,VWS V14.00,2013-12-15 15:10:00,
2013-12-15 07:11:00,-3.1,-15.2,30.36,NW,315,0.0,0.0,55,0.00,,SKC,0.00,VWS V14.00,2013-12-15 15:11:00,
2013-12-15 07:13:00,-3.1,-15.2,30.36,NW,315,0.0,0.0,55,0.00,,SKC,0.00,VWS V14.00,2013-12-15 15:13:00,
2013-12-15 07:14:00,-3.1,-15.2,30.39,NW,315,0.0,0.0,55,0.00,,SKC,0.00,VWS V14.00,2013-12-15 15:14:00,
2013-12-15 07:15:00,-3.1,-15.2,30.39,NW,315,0.0,0.0,55,0.00,,SKC,0.00,VWS V14.00,2013-12-15 15:15:00,
2013-12-15 07:16:00,-2.9,-15.0,30.39,NW,315,0.0,0.0,55,0.00,,SKC,0.00,VWS V14.00,2013-12-15 15:16:00,
2013-12-15 07:18:00,-2.7,-14.9,30.39,NW,315,0.0,0.0,55,0.00,,SKC,0.00,VWS V14.00,2013-12-15 15:18:00,
2013-12-15 07:19:00,-2.7,-14.9,30.39,NW,315,0.0,0.0,55,0.00,,SKC,0.00,VWS V14.00,2013-12-15 15:19:00,
2013-12-15 07:20:00,-2.5,-14.7,30.39,NW,315,0.0,0.0,55,0.00,,SKC,0.00,VWS V14.00,2013-12-15 15:20:00,
2013-12-15 07:21:00,-2.5,-14.7,30.39,NW,315,0.0,0.0,55,0.00,,SKC,0.00,VWS V14.00,2013-12-15 15:21:00,
2013-12-15 07:23:00,-1.8,-14.0,30.39,NW,315,0.0,0.0,55,0.00,,SKC,0.00,VWS V14.00,2013-12-15 15:23:00,
2013-12-15 07:24:00,-1.8,-14.0,30.39,NW,315,0.0,0.0,55,0.00,,SKC,0.00,VWS V14.00,2013-12-15 15:24:00,
2013-12-15 07:25:00,-1.3,-13.5,30.39,NW,315,0.0,0.0,55,0.00,,SKC,0.00,VWS V14.00,2013-12-15 15:25:00,
2013-12-15 07:26:00,-0.9,-13.2,30.39,NW,315,0.0,0.0,55,0.00,,SKC,0.00,VWS V14.00,2013-12-15 15:26:00,
2013-12-15 07:29:00,-0.2,-12.5,30.39,NW,315,0.0,0.0,55,0.00,,SKC,0.00,VWS V14.00,2013-12-15 15:29:00,
2013-12-15 07:31:00,0.4,-12.0,30.39,NW,315,0.0,0.0,55,0.00,,SKC,0.00,VWS V14.00,2013-12-15 15:31:00,
2013-12-15 07:32:00,0.4,-12.0,30.39,NW,315,0.0,0.0,55,0.00,,SKC,0.00,VWS V14.00,2013-12-15 15:32:00,
2013-12-15 07:34:00,0.4,-12.0,30.39,NW,315,0.0,0.0,55,0.00,,SKC,0.00,VWS V14.00,2013-12-15 15:34:00,
2013-12-15 07:36:00,0.9,-11.5,30.39,NW,315,0.9,0.9,55,0.00,,SKC,0.00,VWS V14.00,2013-12-15 15:36:00,
2013-12-15 07:37:00,0.7,-11.6,30.39,NW,315,0.0,0.0,55,0.00,,SKC,0.00,VWS V14.00,2013-12-15 15:37:00,
2013-12-15 07:39:00,0.5,-11.8,30.39,NW,315,0.0,0.0,55,0.00,,SKC,0.00,VWS V14.00,2013-12-15 15:39:00,
2013-12-15 07:41:00,1.1,-11.3,30.39,NW,315,0.0,0.0,55,0.00,,SKC,0.00,VWS V14.00,2013-12-15 15:41:00,
2013-12-15 07:42:00,1.4,-11.0,30.39,NW,315,0.0,0.0,55,0.00,,SKC,0.00,VWS V14.00,2013-12-15 15:42:00,
2013-12-15 07:44:00,2.0,-10.5,30.39,NW,315,0.0,0.0,55,0.00,,SKC,0.00,VWS V14.00,2013-12-15 15:44:00,
2013-12-15 07:47:00,2.0,-10.5,30.39,NW,315,0.0,0.0,55,0.00,,SKC,0.00,VWS V14.00,2013-12-15 15:47:00,
2013-12-15 07:49:00,2.7,-9.8,30.39,NW,315,0.0,0.0,55,0.00,,SKC,0.00,VWS V14.00,2013-12-15 15:49:00,
2013-12-15 07:50:00,2.7,-9.8,30.39,NW,315,0.0,0.0,55,0.00,,SKC,0.00,VWS V14.00,2013-12-15 15:50:00,
2013-12-15 07:52:00,2.9,-9.6,30.39,NW,315,0.0,0.0,55,0.00,,SKC,0.00,VWS V14.00,2013-12-15 15:52:00,
2013-12-15 07:53:00,2.9,-9.6,30.39,NW,315,0.0,0.0,55,0.00,,SKC,0.00,VWS V14.00,2013-12-15 15:53:00,
2013-12-15 07:54:00,3.4,-9.1,30.39,NW,315,0.0,0.0,55,0.00,,SKC,0.00,VWS V14.00,2013-12-15 15:54:00,
2013-12-15 07:55:00,3.4,-9.1,30.39,NW,315,0.0,0.0,55,0.00,,SKC,0.00,VWS V14.00,2013-12-15 15:55:00,
2013-12-15 07:57:00,4.1,-8.4,30.39,NW,315,0.0,0.0,55,0.00,,SKC,0.00,VWS V14.00,2013-12-15 15:57:00,
2013-12-15 07:58:00,4.1,-8.4,30.39,NW,315,0.0,0.0,55,0.00,,SKC,0.00,VWS V14.00,2013-12-15 15:58:00,
2013-12-15 07:59:00,4.5,-8.1,30.39,NW,315,0.0,0.0,55,0.00,,SKC,0.00,VWS V14.00,2013-12-15 15:59:00,
2013-12-15 08:00:00,5.0,-7.6,30.39,NW,315,0.0,0.0,55,0.00,,SKC,0.00,VWS V14.00,2013-12-15 16:00:00,
2013-12-15 08:02:00,5.0,-7.6,30.39,NW,315,0.0,0.0,55,0.00,,SKC,0.00,VWS V14.00,2013-12-15 16:02:00,
2013-12-15 08:03:00,5.2,-7.4,30.39,NW,315,0.0,0.0,55,0.00,,SKC,0.00,VWS V14.00,2013-12-15 16:03:00,
2013-12-15 08:04:00,5.2,-7.4,30.39,NW,315,0.0,0.0,55,0.00,,SKC,0.00,VWS V14.00,2013-12-15 16:04:00,
2013-12-15 08:05:00,5.9,-6.7,30.39,NW,315,0.0,0.0,55,0.00,,SKC,0.00,VWS V14.00,2013-12-15 16:05:00,
2013-12-15 08:07:00,6.8,-5.9,30.39,NW,315,0.0,0.0,55,0.00,,SKC,0.00,VWS V14.00,2013-12-15 16:07:00,
2013-12-15 08:08:00,7.6,-5.2,30.39,NW,315,0.0,0.0,55,0.00,,SKC,0.00,VWS V14.00,2013-12-15 16:08:00,
2013-12-15 08:09:00,8.1,-4.7,30.39,NW,315,0.0,0.0,55,0.00,,SKC,0.00,VWS V14.00,2013-12-15 16:09:00,
2013-12-15 08:10:00,8.6,-4.2,30.39,NW,315,0.0,0.0,55,0.00,,SKC,0.00,VWS V14.00,2013-12-15 16:10:00,
2013-12-15 08:11:00,9.4,-1.4,30.39,NW,315,0.0,0.0,61,0.00,,SKC,0.00,VWS V14.00,2013-12-15 16:11:00,
2013-12-15 08:12:00,11.0,0.2,30.39,NW,315,0.0,0.0,61,0.00,,SKC,0.00,VWS V14.00,2013-12-15 16:12:00,
2013-12-15 08:13:00,11.7,0.9,30.39,NW,315,0.0,0.0,61,0.00,,SKC,0.00,VWS V14.00,2013-12-15 16:13:00,
2013-12-15 08:14:00,12.4,1.5,30.39,NW,315,0.0,0.0,61,0.00,,SKC,0.00,VWS V14.00,2013-12-15 16:14:00,
2013-12-15 08:15:00,12.8,1.9,30.39,NW,315,0.0,0.0,61,0.00,,SKC,0.00,VWS V14.00,2013-12-15 16:15:00,
2013-12-15 08:16:00,13.3,2.4,30.39,NW,315,0.0,0.0,61,0.00,,SKC,0.00,VWS V14.00,2013-12-15 16:16:00,
2013-12-15 08:17:00,13.3,2.4,30.39,NW,315,0.0,0.0,61,0.00,,SKC,0.00,VWS V14.00,2013-12-15 16:17:00,
2013-12-15 08:18:00,14.8,3.8,30.39,NW,315,0.0,0.0,61,0.00,,SKC,0.00,VWS V14.00,2013-12-15 16:18:00,
2013-12-15 08:19:00,15.1,3.8,30.39,NW,315,0.0,0.0,60,0.00,,SKC,0.00,VWS V14.00,2013-12-15 16:19:00,
2013-12-15 08:20:00,15.3,3.9,30.39,NW,315,0.0,0.0,60,0.00,,SKC,0.00,VWS V14.00,2013-12-15 16:20:00,
2013-12-15 08:21:00,15.3,3.9,30.39,NW,315,0.0,0.0,60,0.00,,SKC,0.00,VWS V14.00,2013-12-15 16:21:00,
2013-12-15 08:22:00,13.9,1.5,30.39,NW,315,0.0,0.0,57,0.00,,SKC,0.00,VWS V14.00,2013-12-15 16:22:00,
2013-12-15 08:23:00,13.5,1.1,30.39,NW,315,0.0,0.0,57,0.00,,SKC,0.00,VWS V14.00,2013-12-15 16:23:00,
2013-12-15 08:25:00,13.1,1.1,30.39,NW,315,0.0,0.0,58,0.00,,SKC,0.00,VWS V14.00,2013-12-15 16:25:00,
2013-12-15 08:26:00,13.1,1.1,30.39,NW,315,0.0,0.0,58,0.00,,SKC,0.00,VWS V14.00,2013-12-15 16:26:00,
2013-12-15 08:27:00,13.1,1.5,30.39,NW,315,0.0,0.0,59,0.00,,SKC,0.00,VWS V14.00,2013-12-15 16:27:00,
2013-12-15 08:29:00,13.1,1.5,30.39,NW,315,0.0,0.0,59,0.00,,SKC,0.00,VWS V14.00,2013-12-15 16:29:00,
2013-12-15 08:31:00,14.2,2.9,30.39,NW,315,0.0,0.0,60,0.00,,SKC,0.00,VWS V14.00,2013-12-15 16:31:00,
2013-12-15 08:32:00,14.4,3.1,30.39,NW,315,0.0,0.0,60,0.00,,SKC,0.00,VWS V14.00,2013-12-15 16:32:00,
2013-12-15 08:34:00,14.4,3.1,30.39,NW,315,0.0,0.0,60,0.00,,SKC,0.00,VWS V14.00,2013-12-15 16:34:00,
2013-12-15 08:36:00,14.2,2.9,30.39,NW,315,0.0,0.0,60,0.00,,SKC,0.00,VWS V14.00,2013-12-15 16:36:00,
2013-12-15 08:38:00,14.9,3.6,30.39,NW,315,0.0,0.0,60,0.00,,SKC,0.00,VWS V14.00,2013-12-15 16:38:00,
2013-12-15 08:39:00,15.1,3.4,30.39,NW,315,0.0,0.0,59,0.00,,SKC,0.00,VWS V14.00,2013-12-15 16:39:00,
2013-12-15 08:41:00,16.0,3.5,30.39,NW,315,0.0,0.0,57,0.00,,SKC,0.00,VWS V14.00,2013-12-15 16:41:00,
2013-12-15 08:42:00,16.7,4.2,30.39,NW,315,0.0,0.0,57,0.00,,SKC,0.00,VWS V14.00,2013-12-15 16:42:00,
2013-12-15 08:43:00,16.9,4.3,30.39,NW,315,0.0,0.0,57,0.00,,SKC,0.00,VWS V14.00,2013-12-15 16:43:00,
2013-12-15 08:44:00,17.3,5.1,30.39,NW,315,0.0,0.0,58,0.00,,SKC,0.00,VWS V14.00,2013-12-15 16:44:00,
2013-12-15 08:46:00,17.8,5.2,30.39,NW,315,0.0,0.0,57,0.00,,SKC,0.00,VWS V14.00,2013-12-15 16:46:00,
2013-12-15 08:47:00,18.0,5.7,30.39,NW,315,0.0,0.0,58,0.00,,SKC,0.00,VWS V14.00,2013-12-15 16:47:00,
2013-12-15 08:48:00,17.8,4.8,30.39,NW,315,0.0,0.0,56,0.00,,SKC,0.00,VWS V14.00,2013-12-15 16:48:00,
2013-12-15 08:50:00,18.0,4.6,30.39,NW,315,0.0,0.0,55,0.00,,SKC,0.00,VWS V14.00,2013-12-15 16:50:00,
2013-12-15 08:51:00,18.5,5.1,30.39,NW,315,0.0,0.0,55,0.00,,SKC,0.00,VWS V14.00,2013-12-15 16:51:00,
2013-12-15 08:52:00,18.5,4.7,30.39,NW,315,0.0,0.0,54,0.00,,SKC,0.00,VWS V14.00,2013-12-15 16:52:00,
2013-12-15 08:53:00,19.1,4.8,30.39,NW,315,0.0,0.0,53,0.00,,SKC,0.00,VWS V14.00,2013-12-15 16:53:00,
2013-12-15 08:55:00,19.4,3.0,30.39,NW,315,0.0,0.0,48,0.00,,SKC,0.00,VWS V14.00,2013-12-15 16:55:00,
2013-12-15 08:56:00,19.4,2.5,30.39,NW,315,0.0,0.0,47,0.00,,SKC,0.00,VWS V14.00,2013-12-15 16:56:00,
2013-12-15 08:57:00,19.4,2.5,30.39,NW,315,0.0,0.0,47,0.00,,SKC,0.00,VWS V14.00,2013-12-15 16:57:00,
2013-12-15 08:58:00,19.8,3.7,30.39,NW,315,0.0,0.0,49,0.00,,SKC,0.00,VWS V14.00,2013-12-15 16:58:00,
2013-12-15 09:00:00,21.2,4.2,30.41,NW,315,0.0,0.0,47,0.00,,SKC,0.00,VWS V14.00,2013-12-15 17:00:00,
2013-12-15 09:01:00,21.2,4.2,30.41,NW,315,0.0,0.0,47,0.00,,SKC,0.00,VWS V14.00,2013-12-15 17:01:00,
2013-12-15 09:02:00,21.8,4.2,30.41,NW,315,0.0,0.0,46,0.00,,SKC,0.00,VWS V14.00,2013-12-15 17:02:00,
2013-12-15 09:03:00,22.0,3.9,30.41,NW,315,0.0,0.0,45,0.00,,SKC,0.00,VWS V14.00,2013-12-15 17:03:00,
2013-12-15 09:06:00,23.4,6.2,30.41,NW,315,0.0,0.0,47,0.00,,SKC,0.00,VWS V14.00,2013-12-15 17:06:00,
2013-12-15 09:07:00,24.7,6.4,30.41,NW,315,0.0,0.0,45,0.00,,SKC,0.00,VWS V14.00,2013-12-15 17:07:00,
2013-12-15 09:08:00,25.2,8.3,30.41,NW,315,0.0,0.0,48,0.00,,SKC,0.00,VWS V14.00,2013-12-15 17:08:00,
2013-12-15 09:11:00,25.7,9.7,30.41,NW,315,0.0,0.0,50,0.00,,SKC,0.00,VWS V14.00,2013-12-15 17:11:00,
2013-12-15 09:12:00,25.4,9.4,30.41,NW,315,0.0,0.0,50,0.00,,SKC,0.00,VWS V14.00,2013-12-15 17:12:00,
2013-12-15 09:13:00,25.2,7.8,30.41,NW,315,0.0,0.0,47,0.00,,SKC,0.00,VWS V14.00,2013-12-15 17:13:00,
2013-12-15 09:17:00,26.3,8.3,30.41,NW,315,0.0,0.0,46,0.00,,SKC,0.00,VWS V14.00,2013-12-15 17:17:00,
2013-12-15 09:18:00,27.0,8.5,30.41,NW,315,0.0,0.0,45,0.00,,SKC,0.00,VWS V14.00,2013-12-15 17:18:00,
2013-12-15 09:19:00,27.2,8.7,30.41,NW,315,0.0,0.0,45,0.00,,SKC,0.00,VWS V14.00,2013-12-15 17:19:00,
2013-12-15 09:22:00,27.2,8.7,30.41,NW,315,0.0,0.0,45,0.00,,SKC,0.00,VWS V14.00,2013-12-15 17:22:00,
2013-12-15 09:23:00,27.2,8.7,30.41,NW,315,0.0,0.0,45,0.00,,SKC,0.00,VWS V14.00,2013-12-15 17:23:00,
2013-12-15 09:24:00,26.8,7.3,30.41,NW,315,0.0,0.0,43,0.00,,SKC,0.00,VWS V14.00,2013-12-15 17:24:00,
2013-12-15 09:27:00,26.6,6.7,30.41,NW,315,0.0,0.0,42,0.00,,SKC,0.00,VWS V14.00,2013-12-15 17:27:00,
2013-12-15 09:28:00,26.8,6.8,30.41,WSW,248,0.0,0.0,42,0.00,,SKC,0.00,VWS V14.00,2013-12-15 17:28:00,
2013-12-15 09:29:00,26.8,7.3,30.41,WSW,248,0.0,0.0,43,0.00,,SKC,0.00,VWS V14.00,2013-12-15 17:29:00,
2013-12-15 09:32:00,27.5,7.5,30.41,WSW,248,0.0,0.0,42,0.00,,SKC,0.00,VWS V14.00,2013-12-15 17:32:00,
2013-12-15 09:33:00,27.7,7.6,30.41,WSW,248,0.0,0.0,42,0.00,,SKC,0.00,VWS V14.00,2013-12-15 17:33:00,
2013-12-15 09:34:00,28.3,7.6,30.41,WSW,248,0.0,0.0,41,0.00,,SKC,0.00,VWS V14.00,2013-12-15 17:34:00,
2013-12-15 09:37:00,27.9,6.7,30.41,South,180,0.0,0.0,40,0.00,,SKC,0.00,VWS V14.00,2013-12-15 17:37:00,
2013-12-15 09:38:00,27.9,6.7,30.41,South,180,0.9,0.9,40,0.00,,SKC,0.00,VWS V14.00,2013-12-15 17:38:00,
2013-12-15 09:39:00,27.9,7.3,30.41,South,180,0.0,0.0,41,0.00,,SKC,0.00,VWS V14.00,2013-12-15 17:39:00,
2013-12-15 09:40:00,28.1,7.4,30.41,South,180,0.0,0.0,41,0.00,,SKC,0.00,VWS V14.00,2013-12-15 17:40:00,
2013-12-15 09:42:00,28.3,7.1,30.41,South,180,0.0,0.0,40,0.00,,SKC,0.00,VWS V14.00,2013-12-15 17:42:00,
2013-12-15 09:43:00,28.6,7.4,30.39,South,180,0.0,0.0,40,0.00,,SKC,0.00,VWS V14.00,2013-12-15 17:43:00,
2013-12-15 09:44:00,29.2,7.9,30.39,South,180,0.0,0.0,40,0.00,,SKC,0.00,VWS V14.00,2013-12-15 17:44:00,
2013-12-15 09:45:00,29.0,6.6,30.39,South,180,0.0,0.0,38,0.00,,SKC,0.00,VWS V14.00,2013-12-15 17:45:00,
2013-12-15 09:47:00,30.1,6.9,30.39,South,180,0.0,0.0,37,0.00,,SKC,0.00,VWS V14.00,2013-12-15 17:47:00,
2013-12-15 09:49:00,30.8,7.0,30.39,South,180,0.0,0.0,36,0.00,,SKC,0.00,VWS V14.00,2013-12-15 17:49:00,
2013-12-15 09:50:00,31.1,6.1,30.39,South,180,0.0,0.0,34,0.00,,SKC,0.00,VWS V14.00,2013-12-15 17:50:00,
2013-12-15 09:52:00,33.3,9.2,30.39,South,180,0.0,0.0,36,0.00,,SKC,0.00,VWS V14.00,2013-12-15 17:52:00,
2013-12-15 09:54:00,34.2,7.4,30.39,South,180,0.0,0.0,32,0.00,,SKC,0.00,VWS V14.00,2013-12-15 17:54:00,
2013-12-15 09:55:00,34.2,7.4,30.39,South,180,0.0,0.0,32,0.00,,SKC,0.00,VWS V14.00,2013-12-15 17:55:00,
2013-12-15 09:57:00,34.9,8.1,30.39,South,180,0.0,0.0,32,0.00,,SKC,0.00,VWS V14.00,2013-12-15 17:57:00,
2013-12-15 09:59:00,36.0,8.3,30.39,South,180,0.0,0.0,31,0.00,,SKC,0.00,VWS V14.00,2013-12-15 17:59:00,
2013-12-15 10:00:00,36.4,9.3,30.39,South,180,0.0,0.0,32,0.00,,SKC,0.00,VWS V14.00,2013-12-15 18:00:00,
2013-12-15 10:01:00,36.7,9.6,30.39,South,180,0.0,0.0,32,0.00,,SKC,0.00,VWS V14.00,2013-12-15 18:01:00,
2013-12-15 10:02:00,37.3,8.7,30.39,South,180,0.0,0.0,30,0.00,,SKC,0.00,VWS V14.00,2013-12-15 18:02:00,
2013-12-15 10:04:00,36.2,7.0,30.39,South,180,0.0,0.0,29,0.00,,SKC,0.00,VWS V14.00,2013-12-15 18:04:00,
2013-12-15 10:05:00,36.2,7.0,30.39,South,180,0.0,0.0,29,0.00,,SKC,0.00,VWS V14.00,2013-12-15 18:05:00,
2013-12-15 10:06:00,37.1,8.5,30.39,South,180,0.0,0.0,30,0.00,,SKC,0.00,VWS V14.00,2013-12-15 18:06:00,
2013-12-15 10:07:00,37.3,7.9,30.39,South,180,0.0,0.0,29,0.00,,SKC,0.00,VWS V14.00,2013-12-15 18:07:00,
2013-12-15 10:10:00,38.5,9.0,30.39,South,180,0.0,0.0,29,0.00,,SKC,0.00,VWS V14.00,2013-12-15 18:10:00,
2013-12-15 10:11:00,38.9,9.4,30.39,South,180,0.0,0.0,29,0.00,,SKC,0.00,VWS V14.00,2013-12-15 18:11:00,
2013-12-15 10:13:00,39.6,10.0,30.39,South,180,0.0,0.0,29,0.00,,SKC,0.00,VWS V14.00,2013-12-15 18:13:00,
2013-12-15 10:15:00,39.6,10.0,30.39,South,180,0.0,0.0,29,0.00,,SKC,0.00,VWS V14.00,2013-12-15 18:15:00,
2013-12-15 10:16:00,39.6,9.2,30.39,South,180,0.0,0.0,28,0.00,,SKC,0.00,VWS V14.00,2013-12-15 18:16:00,
2013-12-15 10:17:00,40.0,9.5,30.39,South,180,0.0,0.0,28,0.00,,SKC,0.00,VWS V14.00,2013-12-15 18:17:00,
2013-12-15 10:18:00,39.8,9.4,30.39,South,180,0.0,0.0,28,0.00,,SKC,0.00,VWS V14.00,2013-12-15 18:18:00,
2013-12-15 10:20:00,40.0,9.5,30.39,NW,315,0.0,0.0,28,0.00,,SKC,0.00,VWS V14.00,2013-12-15 18:20:00,
2013-12-15 10:21:00,39.8,9.4,30.39,NW,315,0.0,0.0,28,0.00,,SKC,0.00,VWS V14.00,2013-12-15 18:21:00,
2013-12-15 10:22:00,40.0,9.5,30.39,NW,315,0.0,0.0,28,0.00,,SKC,0.00,VWS V14.00,2013-12-15 18:22:00,
2013-12-15 10:23:00,40.1,9.7,30.39,NW,315,1.3,1.3,28,0.00,,SKC,0.00,VWS V14.00,2013-12-15 18:23:00,
2013-12-15 10:25:00,40.3,9.8,30.39,NW,315,0.0,0.0,28,0.00,,SKC,0.00,VWS V14.00,2013-12-15 18:25:00,
2013-12-15 10:26:00,39.8,9.4,30.39,NW,315,0.0,0.0,28,0.00,,SKC,0.00,VWS V14.00,2013-12-15 18:26:00,
2013-12-15 10:27:00,39.8,9.4,30.39,NW,315,0.0,0.0,28,0.00,,SKC,0.00,VWS V14.00,2013-12-15 18:27:00,
2013-12-15 10:28:00,39.8,9.4,30.39,WNW,292,0.0,0.0,28,0.00,,SKC,0.00,VWS V14.00,2013-12-15 18:28:00,
2013-12-15 10:30:00,38.7,8.4,30.39,NW,315,0.0,0.0,28,0.00,,SKC,0.00,VWS V14.00,2013-12-15 18:30:00,
2013-12-15 10:31:00,39.1,8.7,30.39,NW,315,0.0,0.0,28,0.00,,SKC,0.00,VWS V14.00,2013-12-15 18:31:00,
2013-12-15 10:32:00,39.1,8.7,30.39,NW,315,0.0,0.0,28,0.00,,SKC,0.00,VWS V14.00,2013-12-15 18:32:00,
2013-12-15 10:33:00,39.1,8.7,30.39,NW,315,0.0,0.0,28,0.00,,SKC,0.00,VWS V14.00,2013-12-15 18:33:00,
2013-12-15 10:35:00,39.2,8.9,30.39,NW,315,0.0,0.0,28,0.00,,SKC,0.00,VWS V14.00,2013-12-15 18:35:00,
2013-12-15 10:37:00,39.2,8.9,30.39,NNE,22,0.0,0.0,28,0.00,,SKC,0.00,VWS V14.00,2013-12-15 18:37:00,
2013-12-15 10:38:00,39.6,9.2,30.39,NNE,22,0.0,0.0,28,0.00,,SKC,0.00,VWS V14.00,2013-12-15 18:38:00,
2013-12-15 10:40:00,39.8,8.5,30.39,NNE,22,0.0,0.0,27,0.00,,SKC,0.00,VWS V14.00,2013-12-15 18:40:00,
2013-12-15 10:42:00,39.4,9.0,30.39,NNW,338,0.0,0.0,28,0.00,,SKC,0.00,VWS V14.00,2013-12-15 18:42:00,
2013-12-15 10:43:00,38.3,5.6,30.39,North,0,0.0,0.0,25,0.00,,SKC,0.00,VWS V14.00,2013-12-15 18:43:00,
2013-12-15 10:45:00,39.4,9.0,30.36,North,0,0.0,0.0,28,0.00,,SKC,0.00,VWS V14.00,2013-12-15 18:45:00,
2013-12-15 10:47:00,38.7,8.4,30.36,ENE,68,0.0,0.0,28,0.00,,SKC,0.00,VWS V14.00,2013-12-15 18:47:00,
2013-12-15 10:48:00,38.5,5.8,30.36,East,90,0.0,0.0,25,0.00,,SKC,0.00,VWS V14.00,2013-12-15 18:48:00,
2013-12-15 10:50:00,37.4,5.7,30.36,NE,45,0.0,0.0,26,0.00,,SKC,0.00,VWS V14.00,2013-12-15 18:50:00,
2013-12-15 10:52:00,38.2,7.9,30.36,NE,45,0.0,0.0,28,0.00,,SKC,0.00,VWS V14.00,2013-12-15 18:52:00,
2013-12-15 10:53:00,39.1,8.7,30.36,NE,45,0.0,0.0,28,0.00,,SKC,0.00,VWS V14.00,2013-12-15 18:53:00,
2013-12-15 10:55:00,39.4,6.5,30.36,ESE,112,0.0,0.0,25,0.00,,SKC,0.00,VWS V14.00,2013-12-15 18:55:00,
2013-12-15 10:57:00,38.5,5.8,30.36,East,90,0.0,0.0,25,0.00,,SKC,0.00,VWS V14.00,2013-12-15 18:57:00,
2013-12-15 10:58:00,38.5,5.8,30.36,East,90,0.0,0.0,25,0.00,,SKC,0.00,VWS V14.00,2013-12-15 18:58:00,
2013-12-15 10:59:00,38.5,5.8,30.39,East,90,0.0,0.0,25,0.00,,SKC,0.00,VWS V14.00,2013-12-15 18:59:00,
2013-12-15 11:00:00,38.7,5.9,30.39,East,90,0.0,0.0,25,0.00,,SKC,0.00,VWS V14.00,2013-12-15 19:00:00,
2013-12-15 11:02:00,38.5,8.3,30.39,ESE,112,0.0,0.0,28,0.00,,SKC,0.00,VWS V14.00,2013-12-15 19:02:00,
2013-12-15 11:03:00,38.3,5.6,30.39,ESE,112,0.0,0.0,25,0.00,,SKC,0.00,VWS V14.00,2013-12-15 19:03:00,
2013-12-15 11:04:00,38.2,5.5,30.39,ESE,112,0.0,0.0,25,0.00,,SKC,0.00,VWS V14.00,2013-12-15 19:04:00,
2013-12-15 11:05:00,37.4,5.7,30.39,SE,135,0.0,0.0,26,0.00,,SKC,0.00,VWS V14.00,2013-12-15 19:05:00,
2013-12-15 11:07:00,38.0,5.3,30.39,SE,135,0.0,0.0,25,0.00,,SKC,0.00,VWS V14.00,2013-12-15 19:07:00,
2013-12-15 11:08:00,38.5,5.8,30.39,SE,135,0.0,0.0,25,0.00,,SKC,0.00,VWS V14.00,2013-12-15 19:08:00,
2013-12-15 11:09:00,38.5,5.8,30.39,SE,135,0.0,0.0,25,0.00,,SKC,0.00,VWS V14.00,2013-12-15 19:09:00,
2013-12-15 11:10:00,39.1,6.2,30.39,SE,135,0.0,0.0,25,0.00,,SKC,0.00,VWS V14.00,2013-12-15 19:10:00,
2013-12-15 11:13:00,39.8,6.8,30.39,SE,135,0.0,0.0,25,0.00,,SKC,0.00,VWS V14.00,2013-12-15 19:13:00,
2013-12-15 11:15:00,40.0,7.0,30.36,SE,135,0.0,0.0,25,0.00,,SKC,0.00,VWS V14.00,2013-12-15 19:15:00,
2013-12-15 11:16:00,40.1,7.2,30.36,East,90,0.0,0.0,25,0.00,,SKC,0.00,VWS V14.00,2013-12-15 19:16:00,
2013-12-15 11:18:00,41.0,7.9,30.36,NE,45,0.0,0.0,25,0.00,,SKC,0.00,VWS V14.00,2013-12-15 19:18:00,
2013-12-15 11:19:00,41.0,7.9,30.36,NNE,22,0.0,0.0,25,0.00,,SKC,0.00,VWS V14.00,2013-12-15 19:19:00,
2013-12-15 11:20:00,41.2,8.1,30.36,NE,45,0.0,0.0,25,0.00,,SKC,0.00,VWS V14.00,2013-12-15 19:20:00,
2013-12-15 11:21:00,41.4,7.3,30.36,NE,45,2.0,2.0,24,0.00,,SKC,0.00,VWS V14.00,2013-12-15 19:21:00,
2013-12-15 11:24:00,41.6,5.6,30.36,East,90,0.0,0.0,22,0.00,,SKC,0.00,VWS V14.00,2013-12-15 19:24:00,
2013-12-15 11:25:00,41.8,7.6,30.36,NNE,22,0.0,0.0,24,0.00,,SKC,0.00,VWS V14.00,2013-12-15 19:25:00,
2013-12-15 11:26:00,41.9,5.9,30.36,NE,45,0.0,0.0,22,0.00,,SKC,0.00,VWS V14.00,2013-12-15 19:26:00,
2013-12-15 11:29:00,41.8,5.7,30.36,ENE,68,0.0,0.0,22,0.00,,SKC,0.00,VWS V14.00,2013-12-15 19:29:00,
2013-12-15 11:30:00,41.0,5.1,30.36,ENE,68,0.0,0.0,22,0.00,,SKC,0.00,VWS V14.00,2013-12-15 19:30:00,
2013-12-15 11:31:00,41.4,5.4,30.36,ENE,68,2.2,2.2,22,0.00,,SKC,0.00,VWS V14.00,2013-12-15 19:31:00,
2013-12-15 11:34:00,41.8,5.7,30.36,NE,45,2.9,2.9,22,0.00,,SKC,0.00,VWS V14.00,2013-12-15 19:34:00,
2013-12-15 11:35:00,41.2,5.3,30.36,NE,45,2.7,2.7,22,0.00,,SKC,0.00,VWS V14.00,2013-12-15 19:35:00,
2013-12-15 11:36:00,41.2,5.3,30.36,NNE,22,0.0,0.0,22,0.00,,SKC,0.00,VWS V14.00,2013-12-15 19:36:00,
2013-12-15 11:39:00,41.2,5.3,30.36,ENE,68,0.0,0.0,22,0.00,,SKC,0.00,VWS V14.00,2013-12-15 19:39:00,
2013-12-15 11:40:00,41.4,5.4,30.36,ENE,68,0.0,0.0,22,0.00,,SKC,0.00,VWS V14.00,2013-12-15 19:40:00,
2013-12-15 11:41:00,41.2,5.3,30.36,NE,45,0.0,0.0,22,0.00,,SKC,0.00,VWS V14.00,2013-12-15 19:41:00,
2013-12-15 11:42:00,41.2,5.3,30.36,NE,45,0.0,0.0,22,0.00,,SKC,0.00,VWS V14.00,2013-12-15 19:42:00,
2013-12-15 11:45:00,41.6,5.6,30.36,ENE,68,0.0,0.0,22,0.00,,SKC,0.00,VWS V14.00,2013-12-15 19:45:00,
2013-12-15 11:46:00,41.2,5.3,30.36,East,90,2.7,2.7,22,0.00,,SKC,0.00,VWS V14.00,2013-12-15 19:46:00,
2013-12-15 11:47:00,41.2,5.3,30.36,East,90,2.7,2.7,22,0.00,,SKC,0.00,VWS V14.00,2013-12-15 19:47:00,
2013-12-15 11:48:00,39.8,4.1,30.36,ENE,68,0.0,0.0,22,0.00,,SKC,0.00,VWS V14.00,2013-12-15 19:48:00,
2013-12-15 11:50:00,38.9,4.2,30.36,ENE,68,1.3,1.3,23,0.00,,SKC,0.00,VWS V14.00,2013-12-15 19:50:00,
2013-12-15 11:52:00,38.9,4.2,30.36,East,90,0.0,0.0,23,0.00,,SKC,0.00,VWS V14.00,2013-12-15 19:52:00,
2013-12-15 11:53:00,39.2,4.6,30.36,NE,45,2.0,2.0,23,0.00,,SKC,0.00,VWS V14.00,2013-12-15 19:53:00,
2013-12-15 11:56:00,40.1,4.4,30.36,NNE,22,2.2,2.2,22,0.00,,SKC,0.00,VWS V14.00,2013-12-15 19:56:00,
2013-12-15 11:57:00,40.1,4.4,30.36,NE,45,2.9,2.9,22,0.00,,SKC,0.00,VWS V14.00,2013-12-15 19:57:00,
2013-12-15 11:58:00,40.5,4.7,30.36,NE,45,3.1,3.1,22,0.00,,SKC,0.00,VWS V14.00,2013-12-15 19:58:00,
2013-12-15 11:59:00,40.5,4.7,30.36,ENE,68,3.6,3.6,22,0.00,,SKC,0.00,VWS V14.00,2013-12-15 19:59:00,
2013-12-15 12:01:00,40.7,4.8,30.36,NNE,22,0.0,0.0,22,0.00,,SKC,0.00,VWS V14.00,2013-12-15 20:01:00,
2013-12-15 12:02:00,40.7,4.8,30.36,NNE,22,0.0,0.0,22,0.00,,SKC,0.00,VWS V14.00,2013-12-15 20:02:00,
2013-12-15 12:03:00,40.9,5.0,30.36,NNE,22,3.6,3.6,22,0.00,,SKC,0.00,VWS V14.00,2013-12-15 20:03:00,
2013-12-15 12:04:00,40.5,4.7,30.36,North,0,2.7,2.7,22,0.00,,SKC,0.00,VWS V14.00,2013-12-15 20:04:00,
2013-12-15 12:06:00,41.0,5.1,30.36,NE,45,2.5,2.5,22,0.00,,SKC,0.00,VWS V14.00,2013-12-15 20:06:00,
2013-12-15 12:07:00,41.0,5.1,30.36,ENE,68,0.0,0.0,22,0.00,,SKC,0.00,VWS V14.00,2013-12-15 20:07:00,
2013-12-15 12:08:00,41.6,5.6,30.36,NNE,22,0.0,0.0,22,0.00,,SKC,0.00,VWS V14.00,2013-12-15 20:08:00,
2013-12-15 12:09:00,41.9,5.9,30.36,ENE,68,0.0,0.0,22,0.00,,SKC,0.00,VWS V14.00,2013-12-15 20:09:00,
2013-12-15 12:12:00,42.3,6.2,30.36,East,90,0.0,0.0,22,0.00,,SKC,0.00,VWS V14.00,2013-12-15 20:12:00,
2013-12-15 12:13:00,42.7,6.5,30.36,East,90,0.0,0.0,22,0.00,,SKC,0.00,VWS V14.00,2013-12-15 20:13:00,
2013-12-15 12:14:00,43.2,5.9,30.36,East,90,0.0,0.0,21,0.00,,SKC,0.00,VWS V14.00,2013-12-15 20:14:00,
2013-12-15 12:17:00,43.2,5.9,30.36,East,90,0.0,0.0,21,0.00,,SKC,0.00,VWS V14.00,2013-12-15 20:17:00,
2013-12-15 12:18:00,42.8,6.6,30.36,ESE,112,0.0,0.0,22,0.00,,SKC,0.00,VWS V14.00,2013-12-15 20:18:00,
2013-12-15 12:19:00,42.7,6.5,30.36,ESE,112,0.0,0.0,22,0.00,,SKC,0.00,VWS V14.00,2013-12-15 20:19:00,
2013-12-15 12:22:00,43.2,5.9,30.36,NE,45,0.0,0.0,21,0.00,,SKC,0.00,VWS V14.00,2013-12-15 20:22:00,
2013-12-15 12:24:00,43.4,6.1,30.36,East,90,2.0,2.0,21,0.00,,SKC,0.00,VWS V14.00,2013-12-15 20:24:00,
2013-12-15 12:25:00,43.4,6.1,30.36,ESE,112,0.0,0.0,21,0.00,,SKC,0.00,VWS V14.00,2013-12-15 20:25:00,
2013-12-15 12:27:00,42.8,6.6,30.36,East,90,0.0,0.0,22,0.00,,SKC,0.00,VWS V14.00,2013-12-15 20:27:00,
2013-12-15 12:28:00,42.8,6.6,30.36,East,90,0.0,0.0,22,0.00,,SKC,0.00,VWS V14.00,2013-12-15 20:28:00,
2013-12-15 12:29:00,42.8,6.6,30.36,East,90,0.0,0.0,22,0.00,,SKC,0.00,VWS V14.00,2013-12-15 20:29:00,
2013-12-15 12:30:00,43.4,6.1,30.36,SE,135,0.0,0.0,21,0.00,,SKC,0.00,VWS V14.00,2013-12-15 20:30:00,
2013-12-15 12:32:00,43.7,6.4,30.36,East,90,0.0,0.0,21,0.00,,SKC,0.00,VWS V14.00,2013-12-15 20:32:00,
2013-12-15 12:33:00,43.2,5.9,30.36,East,90,0.0,0.0,21,0.00,,SKC,0.00,VWS V14.00,2013-12-15 20:33:00,
2013-12-15 12:34:00,43.6,6.2,30.36,ESE,112,0.0,0.0,21,0.00,,SKC,0.00,VWS V14.00,2013-12-15 20:34:00,
2013-12-15 12:35:00,44.1,6.7,30.36,SE,135,0.0,0.0,21,0.00,,SKC,0.00,VWS V14.00,2013-12-15 20:35:00,
2013-12-15 12:36:00,44.1,6.7,30.36,SE,135,0.0,0.0,21,0.00,,SKC,0.00,VWS V14.00,2013-12-15 20:36:00,
2013-12-15 12:37:00,44.1,6.7,30.36,SE,135,0.0,0.0,21,0.00,,SKC,0.00,VWS V14.00,2013-12-15 20:37:00,
2013-12-15 12:38:00,44.3,4.6,30.36,SE,135,0.0,0.0,19,0.00,,SKC,0.00,VWS V14.00,2013-12-15 20:38:00,
2013-12-15 12:39:00,44.3,6.8,30.36,SE,135,0.0,0.0,21,0.00,,SKC,0.00,VWS V14.00,2013-12-15 20:39:00,
2013-12-15 12:40:00,44.6,7.1,30.36,NE,45,0.0,0.0,21,0.00,,SKC,0.00,VWS V14.00,2013-12-15 20:40:00,
2013-12-15 12:41:00,44.5,4.8,30.36,East,90,0.0,0.0,19,0.00,,SKC,0.00,VWS V14.00,2013-12-15 20:41:00,
2013-12-15 12:42:00,44.5,4.8,30.36,East,90,1.3,1.3,19,0.00,,SKC,0.00,VWS V14.00,2013-12-15 20:42:00,
2013-12-15 12:43:00,44.6,7.1,30.36,ESE,112,0.0,0.0,21,0.00,,SKC,0.00,VWS V14.00,2013-12-15 20:43:00,
2013-12-15 12:44:00,44.6,7.1,30.36,East,90,0.0,0.0,21,0.00,,SKC,0.00,VWS V14.00,2013-12-15 20:44:00,
2013-12-15 12:45:00,45.0,7.4,30.36,ENE,68,2.7,2.7,21,0.00,,SKC,0.00,VWS V14.00,2013-12-15 20:45:00,
2013-12-15 12:46:00,45.5,7.9,30.36,East,90,0.9,0.9,21,0.00,,SKC,0.00,VWS V14.00,2013-12-15 20:46:00,
2013-12-15 12:47:00,45.9,8.2,30.36,NE,45,0.0,0.0,21,0.00,,SKC,0.00,VWS V14.00,2013-12-15 20:47:00,
2013-12-15 12:48:00,46.3,8.5,30.36,ENE,68,0.0,0.0,21,0.00,,SKC,0.00,VWS V14.00,2013-12-15 20:48:00,
2013-12-15 12:49:00,46.8,5.5,30.36,ENE,68,0.0,0.0,18,0.00,,SKC,0.00,VWS V14.00,2013-12-15 20:49:00,
2013-12-15 12:51:00,47.3,9.4,30.36,NE,45,0.0,0.0,21,0.00,,SKC,0.00,VWS V14.00,2013-12-15 20:51:00,
2013-12-15 12:52:00,47.9,6.4,30.36,East,90,0.0,0.0,18,0.00,,SKC,0.00,VWS V14.00,2013-12-15 20:52:00,
2013-12-15 12:53:00,47.7,6.3,30.36,East,90,0.0,0.0,18,0.00,,SKC,0.00,VWS V14.00,2013-12-15 20:53:00,
2013-12-15 12:54:00,46.6,6.6,30.36,East,90,0.0,0.0,19,0.00,,SKC,0.00,VWS V14.00,2013-12-15 20:54:00,
2013-12-15 12:55:00,46.1,6.1,30.36,NNE,22,0.0,0.0,19,0.00,,SKC,0.00,VWS V14.00,2013-12-15 20:55:00,
2013-12-15 12:56:00,46.4,6.4,30.36,NE,45,0.0,0.0,19,0.00,,SKC,0.00,VWS V14.00,2013-12-15 20:56:00,
2013-12-15 12:57:00,47.0,5.7,30.36,NE,45,2.0,2.0,18,0.00,,SKC,0.00,VWS V14.00,2013-12-15 20:57:00,
2013-12-15 12:58:00,47.7,6.3,30.36,NE,45,0.0,0.0,18,0.00,,SKC,0.00,VWS V14.00,2013-12-15 20:58:00,
2013-12-15 12:59:00,47.9,6.4,30.36,NNE,22,0.0,0.0,18,0.00,,SKC,0.00,VWS V14.00,2013-12-15 20:59:00,
2013-12-15 13:00:00,47.9,6.4,30.36,North,0,1.6,1.6,18,0.00,,SKC,0.00,VWS V14.00,2013-12-15 21:00:00,
2013-12-15 13:01:00,47.9,6.4,30.36,NE,45,0.0,0.0,18,0.00,,SKC,0.00,VWS V14.00,2013-12-15 21:01:00,
2013-12-15 13:02:00,47.5,6.1,30.36,NNE,22,0.0,0.0,18,0.00,,SKC,0.00,VWS V14.00,2013-12-15 21:02:00,
2013-12-15 13:03:00,47.7,6.3,30.36,NNE,22,0.0,0.0,18,0.00,,SKC,0.00,VWS V14.00,2013-12-15 21:03:00,
2013-12-15 13:04:00,48.1,6.6,30.36,NNE,22,0.0,0.0,18,0.00,,SKC,0.00,VWS V14.00,2013-12-15 21:04:00,
2013-12-15 13:05:00,48.1,6.6,30.36,NNE,22,0.0,0.0,18,0.00,,SKC,0.00,VWS V14.00,2013-12-15 21:05:00,
2013-12-15 13:06:00,48.4,6.9,30.36,North,0,0.0,0.0,18,0.00,,SKC,0.00,VWS V14.00,2013-12-15 21:06:00,
2013-12-15 13:07:00,48.6,7.0,30.36,North,0,0.0,0.0,18,0.00,,SKC,0.00,VWS V14.00,2013-12-15 21:07:00,
2013-12-15 13:09:00,48.8,7.2,30.36,ENE,68,0.0,0.0,18,0.00,,SKC,0.00,VWS V14.00,2013-12-15 21:09:00,
2013-12-15 13:10:00,48.8,7.2,30.36,East,90,1.6,1.6,18,0.00,,SKC,0.00,VWS V14.00,2013-12-15 21:10:00,
2013-12-15 13:11:00,48.8,7.2,30.36,East,90,0.0,0.0,18,0.00,,SKC,0.00,VWS V14.00,2013-12-15 21:11:00,
2013-12-15 13:12:00,48.2,6.7,30.36,North,0,2.5,2.5,18,0.00,,SKC,0.00,VWS V14.00,2013-12-15 21:12:00,
2013-12-15 13:14:00,47.3,6.0,30.33,North,0,4.0,4.0,18,0.00,,SKC,0.00,VWS V14.00,2013-12-15 21:14:00,
2013-12-15 13:15:00,43.9,4.3,30.33,North,0,3.6,3.6,19,0.00,,SKC,0.00,VWS V14.00,2013-12-15 21:15:00,
2013-12-15 13:16:00,44.3,4.6,30.33,North,0,0.0,0.0,19,0.00,,SKC,0.00,VWS V14.00,2013-12-15 21:16:00,
2013-12-15 13:17:00,43.7,4.2,30.33,NNE,22,2.5,2.5,19,0.00,,SKC,0.00,VWS V14.00,2013-12-15 21:17:00,
2013-12-15 13:18:00,43.7,4.2,30.33,North,0,3.6,3.6,19,0.00,,SKC,0.00,VWS V14.00,2013-12-15 21:18:00,
2013-12-15 13:19:00,44.1,4.5,30.33,North,0,2.5,2.5,19,0.00,,SKC,0.00,VWS V14.00,2013-12-15 21:19:00,
2013-12-15 13:21:00,43.9,4.3,30.33,NW,315,2.7,2.7,19,0.00,,SKC,0.00,VWS V14.00,2013-12-15 21:21:00,
2013-12-15 13:22:00,44.1,4.5,30.33,NNE,22,1.6,1.6,19,0.00,,SKC,0.00,VWS V14.00,2013-12-15 21:22:00,
2013-12-15 13:23:00,44.1,4.5,30.33,North,0,2.7,2.7,19,0.00,,SKC,0.00,VWS V14.00,2013-12-15 21:23:00,
2013-12-15 13:24:00,44.8,5.1,30.33,North,0,2.2,2.2,19,0.00,,SKC,0.00,VWS V14.00,2013-12-15 21:24:00,
2013-12-15 13:26:00,45.4,5.5,30.33,NNW,338,0.0,0.0,19,0.00,,SKC,0.00,VWS V14.00,2013-12-15 21:26:00,
2013-12-15 13:27:00,45.7,5.8,30.33,NNW,338,0.0,0.0,19,0.00,,SKC,0.00,VWS V14.00,2013-12-15 21:27:00,
2013-12-15 13:28:00,46.1,6.1,30.33,NNW,338,0.0,0.0,19,0.00,,SKC,0.00,VWS V14.00,2013-12-15 21:28:00,
2013-12-15 13:29:00,45.9,6.0,30.33,NNW,338,3.6,3.6,19,0.00,,SKC,0.00,VWS V14.00,2013-12-15 21:29:00,
2013-12-15 13:31:00,45.7,5.8,30.33,East,90,0.0,0.0,19,0.00,,SKC,0.00,VWS V14.00,2013-12-15 21:31:00,
2013-12-15 13:32:00,46.1,6.1,30.33,East,90,0.0,0.0,19,0.00,,SKC,0.00,VWS V14.00,2013-12-15 21:32:00,
2013-12-15 13:33:00,46.3,6.3,30.33,East,90,0.0,0.0,19,0.00,,SKC,0.00,VWS V14.00,2013-12-15 21:33:00,
2013-12-15 13:34:00,46.6,6.6,30.33,NW,315,0.0,0.0,19,0.00,,SKC,0.00,VWS V14.00,2013-12-15 21:34:00,
2013-12-15 13:36:00,47.0,5.7,30.33,NNW,338,0.0,0.0,18,0.00,,SKC,0.00,VWS V14.00,2013-12-15 21:36:00,
2013-12-15 13:37:00,47.0,5.7,30.33,NW,315,2.0,2.0,18,0.00,,SKC,0.00,VWS V14.00,2013-12-15 21:37:00,
2013-12-15 13:38:00,46.8,5.5,30.33,WNW,292,2.9,2.9,18,0.00,,SKC,0.00,VWS V14.00,2013-12-15 21:38:00,
2013-12-15 13:39:00,46.4,6.4,30.33,NW,315,0.9,0.9,19,0.00,,SKC,0.00,VWS V14.00,2013-12-15 21:39:00,
2013-12-15 13:42:00,45.2,5.4,30.33,NNW,338,2.2,2.2,19,0.00,,SKC,0.00,VWS V14.00,2013-12-15 21:42:00,
2013-12-15 13:43:00,45.0,5.2,30.33,WNW,292,0.0,0.0,19,0.00,,SKC,0.00,VWS V14.00,2013-12-15 21:43:00,
2013-12-15 13:44:00,45.4,5.5,30.30,NW,315,2.5,2.5,19,0.00,,SKC,0.00,VWS V14.00,2013-12-15 21:44:00,
2013-12-15 13:47:00,44.8,5.1,30.30,NW,315,2.0,2.0,19,0.00,,SKC,0.00,VWS V14.00,2013-12-15 21:47:00,
2013-12-15 13:48:00,44.8,5.1,30.30,NW,315,0.0,0.0,19,0.00,,SKC,0.00,VWS V14.00,2013-12-15 21:48:00,
2013-12-15 13:50:00,45.0,5.2,30.30,NNW,338,0.0,0.0,19,0.00,,SKC,0.00,VWS V14.00,2013-12-15 21:50:00,
2013-12-15 13:52:00,44.8,5.1,30.30,NNE,22,0.0,0.0,19,0.00,,SKC,0.00,VWS V14.00,2013-12-15 21:52:00,
2013-12-15 13:53:00,45.0,5.2,30.30,North,0,0.0,0.0,19,0.00,,SKC,0.00,VWS V14.00,2013-12-15 21:53:00,
2013-12-15 13:54:00,45.0,5.2,30.30,North,0,0.0,0.0,19,0.00,,SKC,0.00,VWS V14.00,2013-12-15 21:54:00,
2013-12-15 13:55:00,45.4,5.5,30.30,North,0,1.3,1.3,19,0.00,,SKC,0.00,VWS V14.00,2013-12-15 21:55:00,
2013-12-15 13:57:00,45.0,5.2,30.30,East,90,2.0,2.0,19,0.00,,SKC,0.00,VWS V14.00,2013-12-15 21:57:00,
2013-12-15 13:58:00,45.2,5.4,30.30,NE,45,0.9,0.9,19,0.00,,SKC,0.00,VWS V14.00,2013-12-15 21:58:00,
2013-12-15 13:59:00,45.2,5.4,30.30,ENE,68,2.0,2.0,19,0.00,,SKC,0.00,VWS V14.00,2013-12-15 21:59:00,
2013-12-15 14:00:00,45.2,5.4,30.30,NE,45,0.0,0.0,19,0.00,,SKC,0.00,VWS V14.00,2013-12-15 22:00:00,
2013-12-15 14:03:00,45.4,5.5,30.30,East,90,0.0,0.0,19,0.00,,SKC,0.00,VWS V14.00,2013-12-15 22:03:00,
2013-12-15 14:04:00,45.5,5.7,30.30,NE,45,0.0,0.0,19,0.00,,SKC,0.00,VWS V14.00,2013-12-15 22:04:00,
2013-12-15 14:05:00,45.7,5.8,30.30,NE,45,0.0,0.0,19,0.00,,SKC,0.00,VWS V14.00,2013-12-15 22:05:00,
2013-12-15 14:08:00,45.7,5.8,30.30,NNE,22,0.0,0.0,19,0.00,,SKC,0.00,VWS V14.00,2013-12-15 22:08:00,
2013-12-15 14:09:00,45.5,5.7,30.30,East,90,0.0,0.0,19,0.00,,SKC,0.00,VWS V14.00,2013-12-15 22:09:00,
2013-12-15 14:11:00,45.2,5.4,30.30,East,90,1.3,1.3,19,0.00,,SKC,0.00,VWS V14.00,2013-12-15 22:11:00,
2013-12-15 14:13:00,45.0,5.2,30.30,ENE,68,1.1,1.1,19,0.00,,SKC,0.00,VWS V14.00,2013-12-15 22:13:00,
2013-12-15 14:14:00,45.0,5.2,30.30,NE,45,0.0,0.0,19,0.00,,SKC,0.00,VWS V14.00,2013-12-15 22:14:00,
2013-12-15 14:16:00,45.2,5.4,30.30,ENE,68,1.3,1.3,19,0.00,,SKC,0.00,VWS V14.00,2013-12-15 22:16:00,
2013-12-15 14:18:00,45.0,5.2,30.30,East,90,0.0,0.0,19,0.00,,SKC,0.00,VWS V14.00,2013-12-15 22:18:00,
2013-12-15 14:19:00,44.6,4.9,30.30,East,90,0.0,0.0,19,0.00,,SKC,0.00,VWS V14.00,2013-12-15 22:19:00,
2013-12-15 14:21:00,43.7,4.2,30.30,ENE,68,0.0,0.0,19,0.00,,SKC,0.00,VWS V14.00,2013-12-15 22:21:00,
2013-12-15 14:23:00,44.5,4.8,30.30,NE,45,0.0,0.0,19,0.00,,SKC,0.00,VWS V14.00,2013-12-15 22:23:00,
2013-12-15 14:24:00,44.5,4.8,30.30,ENE,68,2.7,2.7,19,0.00,,SKC,0.00,VWS V14.00,2013-12-15 22:24:00,
2013-12-15 14:25:00,44.8,5.1,30.30,NE,45,2.7,2.7,19,0.00,,SKC,0.00,VWS V14.00,2013-12-15 22:25:00,
2013-12-15 14:27:00,44.8,5.1,30.30,NNE,22,2.0,2.0,19,0.00,,SKC,0.00,VWS V14.00,2013-12-15 22:27:00,
2013-12-15 14:28:00,44.8,5.1,30.30,ENE,68,2.2,2.2,19,0.00,,SKC,0.00,VWS V14.00,2013-12-15 22:28:00,
2013-12-15 14:29:00,44.6,4.9,30.30,East,90,0.9,0.9,19,0.00,,SKC,0.00,VWS V14.00,2013-12-15 22:29:00,
2013-12-15 14:30:00,44.6,4.9,30.30,East,90,0.0,0.0,19,0.00,,SKC,0.00,VWS V14.00,2013-12-15 22:30:00,
2013-12-15 14:31:00,44.6,4.9,30.30,East,90,0.0,0.0,19,0.00,,SKC,0.00,VWS V14.00,2013-12-15 22:31:00,
2013-12-15 14:32:00,44.1,4.5,30.30,East,90,0.0,0.0,19,0.00,,SKC,0.00,VWS V14.00,2013-12-15 22:32:00,
2013-12-15 14:33:00,43.7,4.2,30.30,East,90,0.0,0.0,19,0.00,,SKC,0.00,VWS V14.00,2013-12-15 22:33:00,
2013-12-15 14:34:00,43.0,3.6,30.30,ENE,68,0.0,0.0,19,0.00,,SKC,0.00,VWS V14.00,2013-12-15 22:34:00,
2013-12-15 14:35:00,43.0,3.6,30.30,East,90,0.0,0.0,19,0.00,,SKC,0.00,VWS V14.00,2013-12-15 22:35:00,
2013-12-15 14:36:00,43.6,4.0,30.30,ENE,68,0.0,0.0,19,0.00,,SKC,0.00,VWS V14.00,2013-12-15 22:36:00,
2013-12-15 14:37:00,44.1,4.5,30.30,East,90,0.0,0.0,19,0.00,,SKC,0.00,VWS V14.00,2013-12-15 22:37:00,
2013-12-15 14:38:00,44.5,4.8,30.30,East,90,0.0,0.0,19,0.00,,SKC,0.00,VWS V14.00,2013-12-15 22:38:00,
2013-12-15 14:39:00,44.8,5.1,30.30,East,90,0.0,0.0,19,0.00,,SKC,0.00,VWS V14.00,2013-12-15 22:39:00,
2013-12-15 14:40:00,44.8,5.1,30.30,East,90,0.0,0.0,19,0.00,,SKC,0.00,VWS V14.00,2013-12-15 22:40:00,
2013-12-15 14:41:00,44.5,4.8,30.30,East,90,0.0,0.0,19,0.00,,SKC,0.00,VWS V14.00,2013-12-15 22:41:00,
2013-12-15 14:42:00,44.5,4.8,30.30,East,90,0.0,0.0,19,0.00,,SKC,0.00,VWS V14.00,2013-12-15 22:42:00,
2013-12-15 14:43:00,44.5,4.8,30.30,East,90,0.0,0.0,19,0.00,,SKC,0.00,VWS V14.00,2013-12-15 22:43:00,
2013-12-15 14:44:00,44.5,4.8,30.30,East,90,0.0,0.0,19,0.00,,SKC,0.00,VWS V14.00,2013-12-15 22:44:00,
2013-12-15 14:45:00,44.5,4.8,30.30,East,90,0.0,0.0,19,0.00,,SKC,0.00,VWS V14.00,2013-12-15 22:45:00,
2013-12-15 14:46:00,44.5,4.8,30.30,ENE,68,0.0,0.0,19,0.00,,SKC,0.00,VWS V14.00,2013-12-15 22:46:00,
2013-12-15 14:47:00,44.8,5.1,30.30,East,90,0.0,0.0,19,0.00,,SKC,0.00,VWS V14.00,2013-12-15 22:47:00,
2013-12-15 14:49:00,45.2,5.4,30.30,East,90,0.0,0.0,19,0.00,,SKC,0.00,VWS V14.00,2013-12-15 22:49:00,
2013-12-15 14:50:00,45.2,5.4,30.30,ENE,68,0.0,0.0,19,0.00,,SKC,0.00,VWS V14.00,2013-12-15 22:50:00,
2013-12-15 14:51:00,45.0,5.2,30.30,ENE,68,0.0,0.0,19,0.00,,SKC,0.00,VWS V14.00,2013-12-15 22:51:00,
2013-12-15 14:52:00,45.0,5.2,30.30,ENE,68,0.0,0.0,19,0.00,,SKC,0.00,VWS V14.00,2013-12-15 22:52:00,
2013-12-15 14:54:00,44.8,5.1,30.30,East,90,0.0,0.0,19,0.00,,SKC,0.00,VWS V14.00,2013-12-15 22:54:00,
2013-12-15 14:55:00,44.3,4.6,30.30,East,90,0.0,0.0,19,0.00,,SKC,0.00,VWS V14.00,2013-12-15 22:55:00,
2013-12-15 14:57:00,43.9,4.3,30.30,NE,45,0.0,0.0,19,0.00,,SKC,0.00,VWS V14.00,2013-12-15 22:57:00,
2013-12-15 14:59:00,44.1,4.5,30.30,NE,45,0.9,0.9,19,0.00,,SKC,0.00,VWS V14.00,2013-12-15 22:59:00,
2013-12-15 15:00:00,44.1,4.5,30.30,NE,45,0.0,0.0,19,0.00,,SKC,0.00,VWS V14.00,2013-12-15 23:00:00,
2013-12-15 15:01:00,43.6,4.0,30.30,East,90,0.0,0.0,19,0.00,,SKC,0.00,VWS V14.00,2013-12-15 23:01:00,
2013-12-15 15:02:00,43.0,3.6,30.30,East,90,0.0,0.0,19,0.00,,SKC,0.00,VWS V14.00,2013-12-15 23:02:00,
2013-12-15 15:03:00,42.8,3.4,30.30,East,90,0.0,0.0,19,0.00,,SKC,0.00,VWS V14.00,2013-12-15 23:03:00,
2013-12-15 15:04:00,42.7,3.3,30.30,East,90,0.0,0.0,19,0.00,,SKC,0.00,VWS V14.00,2013-12-15 23:04:00,
2013-12-15 15:05:00,42.7,3.3,30.30,East,90,0.0,0.0,19,0.00,,SKC,0.00,VWS V14.00,2013-12-15 23:05:00,
2013-12-15 15:07:00,42.8,3.4,30.30,NE,45,0.0,0.0,19,0.00,,SKC,0.00,VWS V14.00,2013-12-15 23:07:00,
2013-12-15 15:08:00,42.8,3.4,30.30,NE,45,0.0,0.0,19,0.00,,SKC,0.00,VWS V14.00,2013-12-15 23:08:00,
2013-12-15 15:09:00,42.8,3.4,30.30,NE,45,0.0,0.0,19,0.00,,SKC,0.00,VWS V14.00,2013-12-15 23:09:00,
2013-12-15 15:10:00,43.0,3.6,30.30,NE,45,0.0,0.0,19,0.00,,SKC,0.00,VWS V14.00,2013-12-15 23:10:00,
2013-12-15 15:12:00,42.3,3.0,30.30,East,90,0.0,0.0,19,0.00,,SKC,0.00,VWS V14.00,2013-12-15 23:12:00,
2013-12-15 15:13:00,42.3,3.0,30.30,East,90,0.0,0.0,19,0.00,,SKC,0.00,VWS V14.00,2013-12-15 23:13:00,
2013-12-15 15:14:00,42.3,3.0,30.30,East,90,0.0,0.0,19,0.00,,SKC,0.00,VWS V14.00,2013-12-15 23:14:00,
2013-12-15 15:15:00,42.1,2.8,30.30,ENE,68,0.0,0.0,19,0.00,,SKC,0.00,VWS V14.00,2013-12-15 23:15:00,
2013-12-15 15:17:00,41.9,2.7,30.30,ENE,68,0.0,0.0,19,0.00,,SKC,0.00,VWS V14.00,2013-12-15 23:17:00,
2013-12-15 15:19:00,41.2,3.2,30.30,ENE,68,0.0,0.0,20,0.00,,SKC,0.00,VWS V14.00,2013-12-15 23:19:00,
2013-12-15 15:20:00,41.2,3.2,30.30,ENE,68,0.0,0.0,20,0.00,,SKC,0.00,VWS V14.00,2013-12-15 23:20:00,
2013-12-15 15:23:00,40.3,2.5,30.30,East,90,0.0,0.0,20,0.00,,SKC,0.00,VWS V14.00,2013-12-15 23:23:00,
2013-12-15 15:24:00,40.1,2.3,30.30,East,90,0.0,0.0,20,0.00,,SKC,0.00,VWS V14.00,2013-12-15 23:24:00,
2013-12-15 15:25:00,39.6,1.8,30.30,East,90,0.0,0.0,20,0.00,,SKC,0.00,VWS V14.00,2013-12-15 23:25:00,
2013-12-15 15:28:00,38.3,0.8,30.30,East,90,0.0,0.0,20,0.00,,SKC,0.00,VWS V14.00,2013-12-15 23:28:00,
2013-12-15 15:29:00,38.3,0.8,30.30,East,90,0.0,0.0,20,0.00,,SKC,0.00,VWS V14.00,2013-12-15 23:29:00,
2013-12-15 15:30:00,38.3,0.8,30.30,SE,135,0.0,0.0,20,0.00,,SKC,0.00,VWS V14.00,2013-12-15 23:30:00,
2013-12-15 15:31:00,38.0,0.5,30.30,SE,135,0.0,0.0,20,0.00,,SKC,0.00,VWS V14.00,2013-12-15 23:31:00,
2013-12-15 15:34:00,38.2,0.6,30.30,SE,135,0.0,0.0,20,0.00,,SKC,0.00,VWS V14.00,2013-12-15 23:34:00,
2013-12-15 15:35:00,38.0,0.5,30.30,SSE,158,0.0,0.0,20,0.00,,SKC,0.00,VWS V14.00,2013-12-15 23:35:00,
2013-12-15 15:36:00,37.8,0.3,30.30,SSE,158,0.0,0.0,20,0.00,,SKC,0.00,VWS V14.00,2013-12-15 23:36:00,
2013-12-15 15:39:00,37.8,0.3,30.30,SSE,158,0.0,0.0,20,0.00,,SKC,0.00,VWS V14.00,2013-12-15 23:39:00,
2013-12-15 15:40:00,38.0,0.5,30.30,SSE,158,0.0,0.0,20,0.00,,SKC,0.00,VWS V14.00,2013-12-15 23:40:00,
2013-12-15 15:42:00,37.8,0.3,30.30,SSE,158,0.0,0.0,20,0.00,,SKC,0.00,VWS V14.00,2013-12-15 23:42:00,
2013-12-15 15:44:00,37.6,1.2,30.30,SSE,158,0.0,0.0,21,0.00,,SKC,0.00,VWS V14.00,2013-12-15 23:44:00,
2013-12-15 15:45:00,37.8,0.3,30.30,SSE,158,0.0,0.0,20,0.00,,SKC,0.00,VWS V14.00,2013-12-15 23:45:00,
2013-12-15 15:49:00,36.5,0.3,30.30,SSW,202,0.0,0.0,21,0.00,,SKC,0.00,VWS V14.00,2013-12-15 23:49:00,
2013-12-15 15:50:00,36.5,0.3,30.30,SSW,202,0.0,0.0,21,0.00,,SKC,0.00,VWS V14.00,2013-12-15 23:50:00,
2013-12-15 15:51:00,36.4,0.2,30.30,SSW,202,0.0,0.0,21,0.00,,SKC,0.00,VWS V14.00,2013-12-15 23:51:00,
2013-12-15 15:54:00,35.6,-0.4,30.30,SW,225,0.0,0.0,21,0.00,,SKC,0.00,VWS V14.00,2013-12-15 23:54:00,
2013-12-15 15:55:00,35.1,-0.9,30.30,SW,225,0.0,0.0,21,0.00,,SKC,0.00,VWS V14.00,2013-12-15 23:55:00,
2013-12-15 15:56:00,34.9,-1.0,30.30,SW,225,0.0,0.0,21,0.00,,SKC,0.00,VWS V14.00,2013-12-15 23:56:00,
2013-12-15 16:00:00,33.8,-2.0,30.30,SW,225,1.3,1.3,21,0.00,,SKC,0.00,VWS V14.00,2013-12-16 00:00:00,
2013-12-15 16:01:00,33.5,-2.3,30.30,SW,225,0.0,0.0,21,0.00,,SKC,0.00,VWS V14.00,2013-12-16 00:01:00,
2013-12-15 16:05:00,32.0,-0.7,30.30,SW,225,2.5,2.5,24,0.00,,SKC,0.00,VWS V14.00,2013-12-16 00:05:00,
2013-12-15 16:06:00,32.0,-0.7,30.30,SW,225,2.5,2.5,24,0.00,,SKC,0.00,VWS V14.00,2013-12-16 00:06:00,
2013-12-15 16:11:00,30.4,-1.2,30.30,SW,225,0.0,0.0,25,0.00,,SKC,0.00,VWS V14.00,2013-12-16 00:11:00,
2013-12-15 16:16:00,28.8,-2.6,30.30,SW,225,0.0,0.0,25,0.00,,SKC,0.00,VWS V14.00,2013-12-16 00:16:00,
2013-12-15 16:17:00,28.6,-2.7,30.30,SW,225,0.0,0.0,25,0.00,,SKC,0.00,VWS V14.00,2013-12-16 00:17:00,
2013-12-15 16:21:00,28.1,-0.8,30.30,SW,225,0.0,0.0,28,0.00,,SKC,0.00,VWS V14.00,2013-12-16 00:21:00,
2013-12-15 16:22:00,28.1,-0.8,30.30,SW,225,0.0,0.0,28,0.00,,SKC,0.00,VWS V14.00,2013-12-16 00:22:00,
2013-12-15 16:26:00,25.4,-1.0,30.30,WSW,248,0.0,0.0,31,0.00,,SKC,0.00,VWS V14.00,2013-12-16 00:26:00,
2013-12-15 16:27:00,25.2,-1.2,30.30,WSW,248,0.0,0.0,31,0.00,,SKC,0.00,VWS V14.00,2013-12-16 00:27:00,
2013-12-15 16:31:00,24.5,-1.1,30.30,WSW,248,0.0,0.0,32,0.00,,SKC,0.00,VWS V14.00,2013-12-16 00:31:00,
2013-12-15 16:32:00,24.1,-0.8,30.30,WSW,248,0.0,0.0,33,0.00,,SKC,0.00,VWS V14.00,2013-12-16 00:32:00,
2013-12-15 16:34:00,23.6,-1.3,30.30,WSW,248,0.0,0.0,33,0.00,,SKC,0.00,VWS V14.00,2013-12-16 00:34:00,
2013-12-15 16:37:00,23.0,-1.1,30.30,WSW,248,0.0,0.0,34,0.00,,SKC,0.00,VWS V14.00,2013-12-16 00:37:00,
2013-12-15 16:39:00,22.5,-1.6,30.30,WSW,248,0.0,0.0,34,0.00,,SKC,0.00,VWS V14.00,2013-12-16 00:39:00,
2013-12-15 16:42:00,22.0,-2.1,30.30,WSW,248,0.0,0.0,34,0.00,,SKC,0.00,VWS V14.00,2013-12-16 00:42:00,
2013-12-15 16:45:00,21.6,-1.8,30.30,WSW,248,0.0,0.0,35,0.00,,SKC,0.00,VWS V14.00,2013-12-16 00:45:00,
2013-12-15 16:47:00,21.4,-1.4,30.30,WSW,248,0.0,0.0,36,0.00,,SKC,0.00,VWS V14.00,2013-12-16 00:47:00,
2013-12-15 16:48:00,21.1,-1.7,30.30,WSW,248,0.0,0.0,36,0.00,,SKC,0.00,VWS V14.00,2013-12-16 00:48:00,
2013-12-15 16:50:00,20.9,-1.3,30.30,WSW,248,0.0,0.0,37,0.00,,SKC,0.00,VWS V14.00,2013-12-16 00:50:00,
2013-12-15 16:52:00,20.7,-0.9,30.30,WSW,248,0.0,0.0,38,0.00,,SKC,0.00,VWS V14.00,2013-12-16 00:52:00,
2013-12-15 16:53:00,20.5,-1.0,30.30,WSW,248,0.0,0.0,38,0.00,,SKC,0.00,VWS V14.00,2013-12-16 00:53:00,
2013-12-15 16:55:00,20.3,-0.7,30.30,WSW,248,0.0,0.0,39,0.00,,SKC,0.00,VWS V14.00,2013-12-16 00:55:00,
2013-12-15 16:57:00,20.0,-0.4,30.30,WSW,248,0.0,0.0,40,0.00,,SKC,0.00,VWS V14.00,2013-12-16 00:57:00,
2013-12-15 16:58:00,19.8,-0.1,30.30,WSW,248,0.0,0.0,41,0.00,,SKC,0.00,VWS V14.00,2013-12-16 00:58:00,
2013-12-15 17:00:00,19.4,-0.4,30.30,WSW,248,0.0,0.0,41,0.00,,SKC,0.00,VWS V14.00,2013-12-16 01:00:00,
2013-12-15 17:02:00,19.4,-0.4,30.30,WSW,248,0.0,0.0,41,0.00,,SKC,0.00,VWS V14.00,2013-12-16 01:02:00,
2013-12-15 17:03:00,19.4,-0.4,30.30,WSW,248,0.0,0.0,41,0.00,,SKC,0.00,VWS V14.00,2013-12-16 01:03:00,
2013-12-15 17:05:00,19.1,-0.2,30.30,WSW,248,0.0,0.0,42,0.00,,SKC,0.00,VWS V14.00,2013-12-16 01:05:00,
2013-12-15 17:07:00,18.9,-0.4,30.30,WSW,248,0.0,0.0,42,0.00,,SKC,0.00,VWS V14.00,2013-12-16 01:07:00,
2013-12-15 17:08:00,18.9,-0.4,30.30,WSW,248,0.0,0.0,42,0.00,,SKC,0.00,VWS V14.00,2013-12-16 01:08:00,
2013-12-15 17:09:00,18.7,-0.6,30.30,WSW,248,0.0,0.0,42,0.00,,SKC,0.00,VWS V14.00,2013-12-16 01:09:00,
2013-12-15 17:10:00,18.7,-0.6,30.30,WSW,248,0.0,0.0,42,0.00,,SKC,0.00,VWS V14.00,2013-12-16 01:10:00,
2013-12-15 17:12:00,18.5,-0.7,30.30,WSW,248,0.0,0.0,42,0.00,,SKC,0.00,VWS V14.00,2013-12-16 01:12:00,
2013-12-15 17:13:00,18.4,-0.9,30.30,WSW,248,0.0,0.0,42,0.00,,SKC,0.00,VWS V14.00,2013-12-16 01:13:00,
2013-12-15 17:14:00,18.2,-0.6,30.30,WSW,248,0.0,0.0,43,0.00,,SKC,0.00,VWS V14.00,2013-12-16 01:14:00,
2013-12-15 17:16:00,18.0,-0.7,30.30,WSW,248,0.0,0.0,43,0.00,,SKC,0.00,VWS V14.00,2013-12-16 01:16:00,
2013-12-15 17:17:00,17.8,-0.9,30.30,WSW,248,0.0,0.0,43,0.00,,SKC,0.00,VWS V14.00,2013-12-16 01:17:00,
2013-12-15 17:18:00,17.8,-0.4,30.30,WSW,248,0.0,0.0,44,0.00,,SKC,0.00,VWS V14.00,2013-12-16 01:18:00,
2013-12-15 17:19:00,17.6,-1.0,30.30,WSW,248,0.0,0.0,43,0.00,,SKC,0.00,VWS V14.00,2013-12-16 01:19:00,
2013-12-15 17:21:00,17.6,-1.0,30.30,WSW,248,0.0,0.0,43,0.00,,SKC,0.00,VWS V14.00,2013-12-16 01:21:00,
2013-12-15 17:22:00,17.6,-1.0,30.30,WSW,248,0.0,0.0,43,0.00,,SKC,0.00,VWS V14.00,2013-12-16 01:22:00,
2013-12-15 17:24:00,17.6,-1.0,30.30,WSW,248,0.0,0.0,43,0.00,,SKC,0.00,VWS V14.00,2013-12-16 01:24:00,
2013-12-15 17:26:00,17.5,-0.7,30.30,WNW,292,0.0,0.0,44,0.00,,SKC,0.00,VWS V14.00,2013-12-16 01:26:00,
2013-12-15 17:28:00,17.3,-0.9,30.30,WNW,292,0.0,0.0,44,0.00,,SKC,0.00,VWS V14.00,2013-12-16 01:28:00,
2013-12-15 17:29:00,17.3,-0.9,30.30,WNW,292,0.0,0.0,44,0.00,,SKC,0.00,VWS V14.00,2013-12-16 01:29:00,
2013-12-15 17:31:00,17.1,-1.0,30.30,WNW,292,0.0,0.0,44,0.00,,SKC,0.00,VWS V14.00,2013-12-16 01:31:00,
2013-12-15 17:33:00,17.1,-1.0,30.30,WNW,292,0.0,0.0,44,0.00,,SKC,0.00,VWS V14.00,2013-12-16 01:33:00,
2013-12-15 17:34:00,16.9,-1.2,30.30,WNW,292,0.0,0.0,44,0.00,,SKC,0.00,VWS V14.00,2013-12-16 01:34:00,
2013-12-15 17:35:00,16.9,-0.7,30.30,WNW,292,0.0,0.0,45,0.00,,SKC,0.00,VWS V14.00,2013-12-16 01:35:00,
2013-12-15 17:36:00,16.9,-0.7,30.30,WNW,292,0.0,0.0,45,0.00,,SKC,0.00,VWS V14.00,2013-12-16 01:36:00,
2013-12-15 17:37:00,16.9,-1.2,30.30,WNW,292,0.0,0.0,44,0.00,,SKC,0.00,VWS V14.00,2013-12-16 01:37:00,
2013-12-15 17:38:00,16.9,-0.7,30.30,WNW,292,0.0,0.0,45,0.00,,SKC,0.00,VWS V14.00,2013-12-16 01:38:00,
2013-12-15 17:39:00,16.9,-0.7,30.30,WNW,292,0.0,0.0,45,0.00,,SKC,0.00,VWS V14.00,2013-12-16 01:39:00,
2013-12-15 17:40:00,16.9,-0.7,30.30,WNW,292,0.0,0.0,45,0.00,,SKC,0.00,VWS V14.00,2013-12-16 01:40:00,
2013-12-15 17:42:00,16.7,-0.9,30.30,WNW,292,0.0,0.0,45,0.00,,SKC,0.00,VWS V14.00,2013-12-16 01:42:00,
2013-12-15 17:43:00,16.6,-1.1,30.30,WNW,292,0.0,0.0,45,0.00,,SKC,0.00,VWS V14.00,2013-12-16 01:43:00,
2013-12-15 17:44:00,16.6,-1.1,30.30,WNW,292,0.0,0.0,45,0.00,,SKC,0.00,VWS V14.00,2013-12-16 01:44:00,
2013-12-15 17:45:00,16.6,-1.1,30.30,WNW,292,0.0,0.0,45,0.00,,SKC,0.00,VWS V14.00,2013-12-16 01:45:00,
2013-12-15 17:47:00,16.4,-0.8,30.30,WNW,292,0.0,0.0,46,0.00,,SKC,0.00,VWS V14.00,2013-12-16 01:47:00,
2013-12-15 17:48:00,16.4,-0.8,30.30,WNW,292,0.0,0.0,46,0.00,,SKC,0.00,VWS V14.00,2013-12-16 01:48:00,
2013-12-15 17:49:00,16.2,0.4,30.30,WNW,292,0.0,0.0,49,0.00,,SKC,0.00,VWS V14.00,2013-12-16 01:49:00,
2013-12-15 17:50:00,16.2,1.3,30.30,WNW,292,0.0,0.0,51,0.00,,SKC,0.00,VWS V14.00,2013-12-16 01:50:00,
2013-12-15 17:53:00,16.0,2.3,30.30,WNW,292,0.0,0.0,54,0.00,,SKC,0.00,VWS V14.00,2013-12-16 01:53:00,
2013-12-15 17:54:00,16.0,1.5,30.30,WNW,292,0.0,0.0,52,0.00,,SKC,0.00,VWS V14.00,2013-12-16 01:54:00,
2013-12-15 17:55:00,16.0,1.5,30.30,WNW,292,0.0,0.0,52,0.00,,SKC,0.00,VWS V14.00,2013-12-16 01:55:00,
2013-12-15 17:58:00,15.8,1.3,30.30,WNW,292,0.0,0.0,52,0.00,,SKC,0.00,VWS V14.00,2013-12-16 01:58:00,
2013-12-15 17:59:00,15.8,1.8,30.33,WNW,292,0.0,0.0,53,0.00,,SKC,0.00,VWS V14.00,2013-12-16 01:59:00,
2013-12-15 18:00:00,15.8,1.8,30.33,WNW,292,0.0,0.0,53,0.00,,SKC,0.00,VWS V14.00,2013-12-16 02:00:00,
2013-12-15 18:03:00,15.3,0.4,30.33,WNW,292,0.0,0.0,51,0.00,,SKC,0.00,VWS V14.00,2013-12-16 02:03:00,
2013-12-15 18:04:00,15.3,0.0,30.33,WNW,292,0.0,0.0,50,0.00,,SKC,0.00,VWS V14.00,2013-12-16 02:04:00,
2013-12-15 18:05:00,15.1,-0.2,30.33,WNW,292,0.0,0.0,50,0.00,,SKC,0.00,VWS V14.00,2013-12-16 02:05:00,
2013-12-15 18:06:00,15.1,-0.2,30.33,WNW,292,0.0,0.0,50,0.00,,SKC,0.00,VWS V14.00,2013-12-16 02:06:00,
2013-12-15 18:08:00,15.1,-1.5,30.33,WNW,292,0.0,0.0,47,0.00,,SKC,0.00,VWS V14.00,2013-12-16 02:08:00,
2013-12-15 18:09:00,14.9,-1.6,30.33,WNW,292,0.0,0.0,47,0.00,,SKC,0.00,VWS V14.00,2013-12-16 02:09:00,
2013-12-15 18:10:00,14.9,-1.6,30.33,WNW,292,0.0,0.0,47,0.00,,SKC,0.00,VWS V14.00,2013-12-16 02:10:00,
2013-12-15 18:11:00,14.8,-1.8,30.33,WNW,292,0.0,0.0,47,0.00,,SKC,0.00,VWS V14.00,2013-12-16 02:11:00,
2013-12-15 18:13:00,14.4,-2.1,30.33,WNW,292,0.0,0.0,47,0.00,,SKC,0.00,VWS V14.00,2013-12-16 02:13:00,
2013-12-15 18:14:00,14.2,-2.3,30.33,WNW,292,0.0,0.0,47,0.00,,SKC,0.00,VWS V14.00,2013-12-16 02:14:00,
2013-12-15 18:15:00,14.2,-2.3,30.33,WNW,292,0.0,0.0,47,0.00,,SKC,0.00,VWS V14.00,2013-12-16 02:15:00,
2013-12-15 18:16:00,14.2,-2.3,30.33,WNW,292,0.0,0.0,47,0.00,,SKC,0.00,VWS V14.00,2013-12-16 02:16:00,
2013-12-15 18:18:00,14.2,-2.3,30.33,WNW,292,0.0,0.0,47,0.00,,SKC,0.00,VWS V14.00,2013-12-16 02:18:00,
2013-12-15 18:19:00,14.2,-1.9,30.33,WNW,292,0.0,0.0,48,0.00,,SKC,0.00,VWS V14.00,2013-12-16 02:19:00,
2013-12-15 18:20:00,14.2,-1.9,30.33,WNW,292,0.0,0.0,48,0.00,,SKC,0.00,VWS V14.00,2013-12-16 02:20:00,
2013-12-15 18:21:00,14.2,-1.9,30.33,WNW,292,0.0,0.0,48,0.00,,SKC,0.00,VWS V14.00,2013-12-16 02:21:00,
2013-12-15 18:23:00,14.0,-1.6,30.33,WNW,292,0.0,0.0,49,0.00,,SKC,0.00,VWS V14.00,2013-12-16 02:23:00,
2013-12-15 18:24:00,14.0,-1.6,30.33,WNW,292,0.0,0.0,49,0.00,,SKC,0.00,VWS V14.00,2013-12-16 02:24:00,
2013-12-15 18:26:00,14.0,-1.6,30.33,WNW,292,0.0,0.0,49,0.00,,SKC,0.00,VWS V14.00,2013-12-16 02:26:00,
2013-12-15 18:27:00,13.9,-0.9,30.33,WNW,292,0.0,0.0,51,0.00,,SKC,0.00,VWS V14.00,2013-12-16 02:27:00,
2013-12-15 18:28:00,13.9,-0.1,30.33,WNW,292,0.0,0.0,53,0.00,,SKC,0.00,VWS V14.00,2013-12-16 02:28:00,
2013-12-15 18:29:00,13.9,-0.1,30.33,WNW,292,0.0,0.0,53,0.00,,SKC,0.00,VWS V14.00,2013-12-16 02:29:00,
2013-12-15 18:31:00,13.7,-0.7,30.33,WNW,292,0.0,0.0,52,0.00,,SKC,0.00,VWS V14.00,2013-12-16 02:31:00,
2013-12-15 18:32:00,13.7,-0.7,30.33,WNW,292,0.0,0.0,52,0.00,,SKC,0.00,VWS V14.00,2013-12-16 02:32:00,
2013-12-15 18:34:00,13.5,-0.8,30.33,WNW,292,0.0,0.0,52,0.00,,SKC,0.00,VWS V14.00,2013-12-16 02:34:00,
2013-12-15 18:36:00,13.5,-0.8,30.33,WNW,292,0.0,0.0,52,0.00,,SKC,0.00,VWS V14.00,2013-12-16 02:36:00,
2013-12-15 18:37:00,13.3,-0.6,30.33,WNW,292,0.0,0.0,53,0.00,,SKC,0.00,VWS V14.00,2013-12-16 02:37:00,
2013-12-15 18:39:00,13.1,-1.6,30.33,WNW,292,0.0,0.0,51,0.00,,SKC,0.00,VWS V14.00,2013-12-16 02:39:00,
2013-12-15 18:40:00,13.1,-1.6,30.33,WNW,292,0.0,0.0,51,0.00,,SKC,0.00,VWS V14.00,2013-12-16 02:40:00,
2013-12-15 18:41:00,13.0,-2.2,30.33,WNW,292,0.0,0.0,50,0.00,,SKC,0.00,VWS V14.00,2013-12-16 02:41:00,
2013-12-15 18:43:00,12.8,-2.8,30.33,WNW,292,0.0,0.0,49,0.00,,SKC,0.00,VWS V14.00,2013-12-16 02:43:00,
2013-12-15 18:44:00,12.8,-2.3,30.33,WNW,292,0.0,0.0,50,0.00,,SKC,0.00,VWS V14.00,2013-12-16 02:44:00,
2013-12-15 18:45:00,12.8,-2.3,30.33,WNW,292,0.0,0.0,50,0.00,,SKC,0.00,VWS V14.00,2013-12-16 02:45:00,
2013-12-15 18:46:00,12.6,-2.1,30.33,WNW,292,0.0,0.0,51,0.00,,SKC,0.00,VWS V14.00,2013-12-16 02:46:00,
2013-12-15 18:48:00,12.6,-2.1,30.33,WNW,292,0.0,0.0,51,0.00,,SKC,0.00,VWS V14.00,2013-12-16 02:48:00,
2013-12-15 18:49:00,12.6,-1.7,30.33,WNW,292,0.0,0.0,52,0.00,,SKC,0.00,VWS V14.00,2013-12-16 02:49:00,
2013-12-15 18:50:00,12.4,-1.4,30.33,SE,135,3.1,3.1,53,0.00,,SKC,0.00,VWS V14.00,2013-12-16 02:50:00,
2013-12-15 18:51:00,12.4,-1.4,30.33,SE,135,0.0,0.0,53,0.00,,SKC,0.00,VWS V14.00,2013-12-16 02:51:00,
2013-12-15 18:52:00,12.4,-1.4,30.33,SE,135,0.0,0.0,53,0.00,,SKC,0.00,VWS V14.00,2013-12-16 02:52:00,
2013-12-15 18:53:00,11.9,-2.0,30.33,SE,135,0.0,0.0,53,0.00,,SKC,0.00,VWS V14.00,2013-12-16 02:53:00,
2013-12-15 18:54:00,11.9,-1.6,30.33,SE,135,1.6,1.6,54,0.00,,SKC,0.00,VWS V14.00,2013-12-16 02:54:00,
2013-12-15 18:55:00,11.9,-1.6,30.33,SE,135,0.9,0.9,54,0.00,,SKC,0.00,VWS V14.00,2013-12-16 02:55:00,
2013-12-15 18:56:00,11.9,-1.6,30.33,SE,135,0.0,0.0,54,0.00,,SKC,0.00,VWS V14.00,2013-12-16 02:56:00,
2013-12-15 18:57:00,11.9,-2.0,30.33,SE,135,0.0,0.0,53,0.00,,SKC,0.00,VWS V14.00,2013-12-16 02:57:00,
2013-12-15 18:58:00,11.9,-1.6,30.36,SE,135,0.0,0.0,54,0.00,,SKC,0.00,VWS V14.00,2013-12-16 02:58:00,
2013-12-15 18:59:00,12.1,-1.4,30.36,SE,135,0.0,0.0,54,0.00,,SKC,0.00,VWS V14.00,2013-12-16 02:59:00,
2013-12-15 19:00:00,12.1,-1.4,30.36,SE,135,0.0,0.0,54,0.00,,SKC,0.00,VWS V14.00,2013-12-16 03:00:00,
2013-12-15 19:01:00,12.1,-1.4,30.36,SE,135,0.0,0.0,54,0.00,,SKC,0.00,VWS V14.00,2013-12-16 03:01:00,
2013-12-15 19:02:00,12.1,-1.0,30.36,SE,135,0.0,0.0,55,0.00,,SKC,0.00,VWS V14.00,2013-12-16 03:02:00,
2013-12-15 19:04:00,12.6,-0.1,30.36,SE,135,0.0,0.0,56,0.00,,SKC,0.00,VWS V14.00,2013-12-16 03:04:00,
2013-12-15 19:05:00,12.8,0.4,30.36,SE,135,0.0,0.0,57,0.00,,SKC,0.00,VWS V14.00,2013-12-16 03:05:00,
2013-12-15 19:06:00,13.0,0.6,30.36,SE,135,0.0,0.0,57,0.00,,SKC,0.00,VWS V14.00,2013-12-16 03:06:00,
2013-12-15 19:07:00,13.3,1.3,30.36,SE,135,0.0,0.0,58,0.00,,SKC,0.00,VWS V14.00,2013-12-16 03:07:00,
2013-12-15 19:09:00,13.5,1.5,30.36,SE,135,0.0,0.0,58,0.00,,SKC,0.00,VWS V14.00,2013-12-16 03:09:00,
2013-12-15 19:10:00,13.7,1.7,30.36,SE,135,0.0,0.0,58,0.00,,SKC,0.00,VWS V14.00,2013-12-16 03:10:00,
2013-12-15 19:11:00,13.5,1.5,30.36,SE,135,0.0,0.0,58,0.00,,SKC,0.00,VWS V14.00,2013-12-16 03:11:00,
2013-12-15 19:12:00,13.5,1.5,30.36,SE,135,0.0,0.0,58,0.00,,SKC,0.00,VWS V14.00,2013-12-16 03:12:00,
2013-12-15 19:14:00,13.7,2.0,30.36,SE,135,0.0,0.0,59,0.00,,SKC,0.00,VWS V14.00,2013-12-16 03:14:00,
2013-12-15 19:15:00,13.7,2.0,30.36,SE,135,0.0,0.0,59,0.00,,SKC,0.00,VWS V14.00,2013-12-16 03:15:00,
2013-12-15 19:16:00,13.7,2.4,30.36,SE,135,0.0,0.0,60,0.00,,SKC,0.00,VWS V14.00,2013-12-16 03:16:00,
2013-12-15 19:17:00,13.7,2.4,30.36,SE,135,0.0,0.0,60,0.00,,SKC,0.00,VWS V14.00,2013-12-16 03:17:00,
2013-12-15 19:18:00,13.7,2.4,30.36,SE,135,0.0,0.0,60,0.00,,SKC,0.00,VWS V14.00,2013-12-16 03:18:00,
2013-12-15 19:19:00,13.7,2.4,30.36,SE,135,0.0,0.0,60,0.00,,SKC,0.00,VWS V14.00,2013-12-16 03:19:00,
2013-12-15 19:20:00,13.7,2.4,30.36,SE,135,0.0,0.0,60,0.00,,SKC,0.00,VWS V14.00,2013-12-16 03:20:00,
2013-12-15 19:21:00,13.7,2.4,30.36,SE,135,0.0,0.0,60,0.00,,SKC,0.00,VWS V14.00,2013-12-16 03:21:00,
2013-12-15 19:22:00,13.7,2.4,30.36,SE,135,0.0,0.0,60,0.00,,SKC,0.00,VWS V14.00,2013-12-16 03:22:00,
2013-12-15 19:23:00,13.5,1.9,30.36,SE,135,0.0,0.0,59,0.00,,SKC,0.00,VWS V14.00,2013-12-16 03:23:00,
2013-12-15 19:24:00,13.3,1.7,30.36,SE,135,0.0,0.0,59,0.00,,SKC,0.00,VWS V14.00,2013-12-16 03:24:00,
2013-12-15 19:25:00,13.1,1.5,30.36,SE,135,0.0,0.0,59,0.00,,SKC,0.00,VWS V14.00,2013-12-16 03:25:00,
2013-12-15 19:27:00,12.8,1.2,30.36,SE,135,0.0,0.0,59,0.00,,SKC,0.00,VWS V14.00,2013-12-16 03:27:00,
2013-12-15 19:28:00,12.6,1.0,30.36,SE,135,0.0,0.0,59,0.00,,SKC,0.00,VWS V14.00,2013-12-16 03:28:00,
2013-12-15 19:30:00,12.1,0.1,30.36,SE,135,0.0,0.0,58,0.00,,SKC,0.00,VWS V14.00,2013-12-16 03:30:00,
2013-12-15 19:32:00,11.7,-0.2,30.36,SE,135,0.0,0.0,58,0.00,,SKC,0.00,VWS V14.00,2013-12-16 03:32:00,
2013-12-15 19:33:00,11.7,-0.2,30.36,SE,135,0.0,0.0,58,0.00,,SKC,0.00,VWS V14.00,2013-12-16 03:33:00,
2013-12-15 19:34:00,11.7,-0.2,30.36,SE,135,0.0,0.0,58,0.00,,SKC,0.00,VWS V14.00,2013-12-16 03:34:00,
2013-12-15 19:35:00,11.7,-0.2,30.36,SE,135,0.0,0.0,58,0.00,,SKC,0.00,VWS V14.00,2013-12-16 03:35:00,
2013-12-15 19:38:00,11.5,-0.4,30.36,SE,135,0.0,0.0,58,0.00,,SKC,0.00,VWS V14.00,2013-12-16 03:38:00,
2013-12-15 19:39:00,11.5,0.0,30.36,SE,135,0.0,0.0,59,0.00,,SKC,0.00,VWS V14.00,2013-12-16 03:39:00,
2013-12-15 19:41:00,11.5,0.3,30.36,SE,135,0.0,0.0,60,0.00,,SKC,0.00,VWS V14.00,2013-12-16 03:41:00,
2013-12-15 19:42:00,11.5,0.3,30.36,SE,135,0.0,0.0,60,0.00,,SKC,0.00,VWS V14.00,2013-12-16 03:42:00,
2013-12-15 19:43:00,11.5,0.3,30.36,SE,135,0.0,0.0,60,0.00,,SKC,0.00,VWS V14.00,2013-12-16 03:43:00,
2013-12-15 19:44:00,11.5,0.3,30.36,SE,135,0.0,0.0,60,0.00,,SKC,0.00,VWS V14.00,2013-12-16 03:44:00,
2013-12-15 19:46:00,11.3,0.2,30.36,SE,135,0.0,0.0,60,0.00,,SKC,0.00,VWS V14.00,2013-12-16 03:46:00,
2013-12-15 19:47:00,11.2,-0.4,30.36,SE,135,0.0,0.0,59,0.00,,SKC,0.00,VWS V14.00,2013-12-16 03:47:00,
2013-12-15 19:48:00,11.2,0.0,30.36,SE,135,0.0,0.0,60,0.00,,SKC,0.00,VWS V14.00,2013-12-16 03:48:00,
2013-12-15 19:49:00,11.2,0.0,30.36,NNE,22,0.0,0.0,60,0.00,,SKC,0.00,VWS V14.00,2013-12-16 03:49:00,
2013-12-15 19:51:00,10.8,-0.3,30.36,NNE,22,0.0,0.0,60,0.00,,SKC,0.00,VWS V14.00,2013-12-16 03:51:00,
2013-12-15 19:52:00,10.8,-0.3,30.36,NE,45,0.0,0.0,60,0.00,,SKC,0.00,VWS V14.00,2013-12-16 03:52:00,
2013-12-15 19:53:00,10.8,-0.3,30.36,NE,45,0.0,0.0,60,0.00,,SKC,0.00,VWS V14.00,2013-12-16 03:53:00,
2013-12-15 19:54:00,10.8,-0.7,30.36,NE,45,0.0,0.0,59,0.00,,SKC,0.00,VWS V14.00,2013-12-16 03:54:00,
2013-12-15 19:55:00,10.8,-0.7,30.36,NE,45,0.0,0.0,59,0.00,,SKC,0.00,VWS V14.00,2013-12-16 03:55:00,
2013-12-15 19:56:00,10.8,-0.7,30.36,NE,45,0.0,0.0,59,0.00,,SKC,0.00,VWS V14.00,2013-12-16 03:56:00,
2013-12-15 19:58:00,10.4,-1.0,30.36,NE,45,0.0,0.0,59,0.00,,SKC,0.00,VWS V14.00,2013-12-16 03:58:00,
2013-12-15 19:59:00,10.4,-1.0,30.33,NE,45,0.0,0.0,59,0.00,,SKC,0.00,VWS V14.00,2013-12-16 03:59:00,
2013-12-15 20:00:00,10.4,-1.0,30.33,NE,45,0.0,0.0,59,0.00,,SKC,0.00,VWS V14.00,2013-12-16 04:00:00,
2013-12-15 20:02:00,10.3,-1.6,30.33,NE,45,0.0,0.0,58,0.00,,SKC,0.00,VWS V14.00,2013-12-16 04:02:00,
2013-12-15 20:04:00,10.3,-1.6,30.33,NE,45,0.0,0.0,58,0.00,,SKC,0.00,VWS V14.00,2013-12-16 04:04:00,
2013-12-15 20:05:00,10.3,-1.6,30.33,NE,45,0.0,0.0,58,0.00,,SKC,0.00,VWS V14.00,2013-12-16 04:05:00,
2013-12-15 20:07:00,10.3,-1.6,30.33,NE,45,0.0,0.0,58,0.00,,SKC,0.00,VWS V14.00,2013-12-16 04:07:00,
2013-12-15 20:09:00,10.3,-1.9,30.33,NE,45,0.0,0.0,57,0.00,,SKC,0.00,VWS V14.00,2013-12-16 04:09:00,
2013-12-15 20:10:00,10.3,-1.9,30.33,NE,45,0.0,0.0,57,0.00,,SKC,0.00,VWS V14.00,2013-12-16 04:10:00,
2013-12-15 20:11:00,10.3,-1.9,30.33,NE,45,0.0,0.0,57,0.00,,SKC,0.00,VWS V14.00,2013-12-16 04:11:00,
2013-12-15 20:12:00,10.3,-1.9,30.33,NE,45,0.0,0.0,57,0.00,,SKC,0.00,VWS V14.00,2013-12-16 04:12:00,
2013-12-15 20:14:00,10.3,-1.9,30.36,NE,45,0.0,0.0,57,0.00,,SKC,0.00,VWS V14.00,2013-12-16 04:14:00,
2013-12-15 20:15:00,10.3,-1.9,30.36,NE,45,0.0,0.0,57,0.00,,SKC,0.00,VWS V14.00,2013-12-16 04:15:00,
2013-12-15 20:16:00,10.3,-1.9,30.36,NE,45,0.0,0.0,57,0.00,,SKC,0.00,VWS V14.00,2013-12-16 04:16:00,
2013-12-15 20:17:00,10.3,-1.9,30.36,NE,45,0.0,0.0,57,0.00,,SKC,0.00,VWS V14.00,2013-12-16 04:17:00,
2013-12-15 20:20:00,10.1,-1.7,30.36,NE,45,0.0,0.0,58,0.00,,SKC,0.00,VWS V14.00,2013-12-16 04:20:00,
2013-12-15 20:21:00,10.1,-1.7,30.36,NE,45,0.0,0.0,58,0.00,,SKC,0.00,VWS V14.00,2013-12-16 04:21:00,
2013-12-15 20:22:00,10.1,-1.7,30.36,NE,45,0.0,0.0,58,0.00,,SKC,0.00,VWS V14.00,2013-12-16 04:22:00,
2013-12-15 20:25:00,9.9,-1.9,30.36,NE,45,0.0,0.0,58,0.00,,SKC,0.00,VWS V14.00,2013-12-16 04:25:00,
2013-12-15 20:26:00,9.7,-1.7,30.36,NE,45,0.0,0.0,59,0.00,,SKC,0.00,VWS V14.00,2013-12-16 04:26:00,
2013-12-15 20:27:00,9.5,-1.9,30.36,NE,45,0.0,0.0,59,0.00,,SKC,0.00,VWS V14.00,2013-12-16 04:27:00,
2013-12-15 20:30:00,9.5,-2.2,30.36,NW,315,0.0,0.0,58,0.00,,SKC,0.00,VWS V14.00,2013-12-16 04:30:00,
2013-12-15 20:31:00,9.4,-2.4,30.36,NW,315,0.0,0.0,58,0.00,,SKC,0.00,VWS V14.00,2013-12-16 04:31:00,
2013-12-15 20:32:00,9.4,-2.4,30.36,NW,315,0.0,0.0,58,0.00,,SKC,0.00,VWS V14.00,2013-12-16 04:32:00,
2013-12-15 20:35:00,9.2,-2.6,30.36,WNW,292,1.3,1.3,58,0.00,,SKC,0.00,VWS V14.00,2013-12-16 04:35:00,
2013-12-15 20:36:00,9.0,-2.8,30.36,WNW,292,2.7,2.7,58,0.00,,SKC,0.00,VWS V14.00,2013-12-16 04:36:00,
2013-12-15 20:37:00,9.0,-2.8,30.36,WNW,292,0.0,0.0,58,0.00,,SKC,0.00,VWS V14.00,2013-12-16 04:37:00,
2013-12-15 20:41:00,8.8,-2.9,30.36,WNW,292,0.0,0.0,58,0.00,,SKC,0.00,VWS V14.00,2013-12-16 04:41:00,
2013-12-15 20:42:00,8.8,-2.9,30.36,WNW,292,0.0,0.0,58,0.00,,SKC,0.00,VWS V14.00,2013-12-16 04:42:00,
2013-12-15 20:46:00,8.6,-3.1,30.36,NW,315,0.0,0.0,58,0.00,,SKC,0.00,VWS V14.00,2013-12-16 04:46:00,
2013-12-15 20:47:00,8.6,-3.1,30.36,NW,315,0.0,0.0,58,0.00,,SKC,0.00,VWS V14.00,2013-12-16 04:47:00,
2013-12-15 20:48:00,8.8,-2.9,30.36,NW,315,0.0,0.0,58,0.00,,SKC,0.00,VWS V14.00,2013-12-16 04:48:00,
2013-12-15 20:51:00,8.8,-2.9,30.36,NW,315,0.0,0.0,58,0.00,,SKC,0.00,VWS V14.00,2013-12-16 04:51:00,
2013-12-15 20:52:00,8.8,-2.9,30.36,NW,315,0.0,0.0,58,0.00,,SKC,0.00,VWS V14.00,2013-12-16 04:52:00,
2013-12-15 20:53:00,8.6,-3.1,30.36,NW,315,0.0,0.0,58,0.00,,SKC,0.00,VWS V14.00,2013-12-16 04:53:00,
2013-12-15 20:57:00,8.5,-3.3,30.36,NW,315,0.0,0.0,58,0.00,,SKC,0.00,VWS V14.00,2013-12-16 04:57:00,
2013-12-15 20:58:00,8.5,-3.3,30.36,NW,315,0.0,0.0,58,0.00,,SKC,0.00,VWS V14.00,2013-12-16 04:58:00,
2013-12-15 21:01:00,8.3,-3.4,30.36,North,0,0.0,0.0,58,0.00,,SKC,0.00,VWS V14.00,2013-12-16 05:01:00,
2013-12-15 21:06:00,7.9,-3.8,30.36,North,0,0.0,0.0,58,0.00,,SKC,0.00,VWS V14.00,2013-12-16 05:06:00,
2013-12-15 21:07:00,7.9,-3.8,30.36,North,0,0.0,0.0,58,0.00,,SKC,0.00,VWS V14.00,2013-12-16 05:07:00,
2013-12-15 21:11:00,7.7,-4.0,30.36,North,0,0.0,0.0,58,0.00,,SKC,0.00,VWS V14.00,2013-12-16 05:11:00,
2013-12-15 21:12:00,7.7,-4.0,30.36,North,0,0.0,0.0,58,0.00,,SKC,0.00,VWS V14.00,2013-12-16 05:12:00,
2013-12-15 21:16:00,7.7,-4.0,30.36,North,0,0.0,0.0,58,0.00,,SKC,0.00,VWS V14.00,2013-12-16 05:16:00,
2013-12-15 21:17:00,7.7,-4.0,30.36,North,0,0.0,0.0,58,0.00,,SKC,0.00,VWS V14.00,2013-12-16 05:17:00,
2013-12-15 21:18:00,7.7,-4.0,30.36,North,0,0.0,0.0,58,0.00,,SKC,0.00,VWS V14.00,2013-12-16 05:18:00,
2013-12-15 21:21:00,7.7,-4.0,30.36,North,0,0.0,0.0,58,0.00,,SKC,0.00,VWS V14.00,2013-12-16 05:21:00,
2013-12-15 21:22:00,7.7,-4.0,30.36,North,0,0.0,0.0,58,0.00,,SKC,0.00,VWS V14.00,2013-12-16 05:22:00,
2013-12-15 21:23:00,7.7,-4.0,30.36,North,0,0.0,0.0,58,0.00,,SKC,0.00,VWS V14.00,2013-12-16 05:23:00,
2013-12-15 21:26:00,8.1,-3.6,30.36,North,0,0.0,0.0,58,0.00,,SKC,0.00,VWS V14.00,2013-12-16 05:26:00,
2013-12-15 21:27:00,8.1,-3.6,30.36,North,0,0.0,0.0,58,0.00,,SKC,0.00,VWS V14.00,2013-12-16 05:27:00,
2013-12-15 21:28:00,8.1,-3.6,30.36,North,0,0.0,0.0,58,0.00,,SKC,0.00,VWS V14.00,2013-12-16 05:28:00,
2013-12-15 21:31:00,7.9,-3.8,30.36,North,0,0.0,0.0,58,0.00,,SKC,0.00,VWS V14.00,2013-12-16 05:31:00,
2013-12-15 21:32:00,7.9,-3.8,30.36,North,0,0.0,0.0,58,0.00,,SKC,0.00,VWS V14.00,2013-12-16 05:32:00,
2013-12-15 21:33:00,7.9,-3.8,30.36,North,0,0.0,0.0,58,0.00,,SKC,0.00,VWS V14.00,2013-12-16 05:33:00,
2013-12-15 21:36:00,7.6,-4.1,30.36,North,0,0.0,0.0,58,0.00,,SKC,0.00,VWS V14.00,2013-12-16 05:36:00,
2013-12-15 21:37:00,7.6,-4.1,30.36,North,0,0.0,0.0,58,0.00,,SKC,0.00,VWS V14.00,2013-12-16 05:37:00,
2013-12-15 21:38:00,7.6,-4.1,30.36,North,0,0.0,0.0,58,0.00,,SKC,0.00,VWS V14.00,2013-12-16 05:38:00,
2013-12-15 21:41:00,8.1,-3.6,30.36,West,270,0.0,0.0,58,0.00,,SKC,0.00,VWS V14.00,2013-12-16 05:41:00,
2013-12-15 21:42:00,8.1,-3.6,30.36,West,270,0.0,0.0,58,0.00,,SKC,0.00,VWS V14.00,2013-12-16 05:42:00,
2013-12-15 21:44:00,8.1,-3.6,30.36,West,270,0.0,0.0,58,0.00,,SKC,0.00,VWS V14.00,2013-12-16 05:44:00,
2013-12-15 21:47:00,7.7,-4.0,30.36,West,270,0.0,0.0,58,0.00,,SKC,0.00,VWS V14.00,2013-12-16 05:47:00,
2013-12-15 21:49:00,7.6,-4.1,30.36,West,270,0.0,0.0,58,0.00,,SKC,0.00,VWS V14.00,2013-12-16 05:49:00,
2013-12-15 21:52:00,7.0,-4.6,30.36,West,270,0.0,0.0,58,0.00,,SKC,0.00,VWS V14.00,2013-12-16 05:52:00,
2013-12-15 21:53:00,7.0,-4.6,30.36,West,270,0.0,0.0,58,0.00,,SKC,0.00,VWS V14.00,2013-12-16 05:53:00,
2013-12-15 21:54:00,7.0,-4.6,30.36,West,270,0.0,0.0,58,0.00,,SKC,0.00,VWS V14.00,2013-12-16 05:54:00,
2013-12-15 21:55:00,6.8,-4.8,30.36,West,270,0.0,0.0,58,0.00,,SKC,0.00,VWS V14.00,2013-12-16 05:55:00,
2013-12-15 21:57:00,6.8,-4.8,30.36,West,270,0.0,0.0,58,0.00,,SKC,0.00,VWS V14.00,2013-12-16 05:57:00,
2013-12-15 21:58:00,6.8,-4.8,30.36,West,270,0.0,0.0,58,0.00,,SKC,0.00,VWS V14.00,2013-12-16 05:58:00,
2013-12-15 21:59:00,6.7,-5.0,30.36,West,270,0.0,0.0,58,0.00,,SKC,0.00,VWS V14.00,2013-12-16 05:59:00,
2013-12-15 22:00:00,6.7,-5.0,30.36,West,270,0.0,0.0,58,0.00,,SKC,0.00,VWS V14.00,2013-12-16 06:00:00,
2013-12-15 22:02:00,6.7,-5.0,30.36,West,270,0.0,0.0,58,0.00,,SKC,0.00,VWS V14.00,2013-12-16 06:02:00,
2013-12-15 22:03:00,6.5,-5.1,30.36,West,270,0.0,0.0,58,0.00,,SKC,0.00,VWS V14.00,2013-12-16 06:03:00,
2013-12-15 22:04:00,6.3,-5.3,30.36,West,270,0.0,0.0,58,0.00,,SKC,0.00,VWS V14.00,2013-12-16 06:04:00,
2013-12-15 22:05:00,6.3,-5.3,30.36,West,270,0.0,0.0,58,0.00,,SKC,0.00,VWS V14.00,2013-12-16 06:05:00,
2013-12-15 22:07:00,6.1,-5.5,30.36,West,270,0.0,0.0,58,0.00,,SKC,0.00,VWS V14.00,2013-12-16 06:07:00,
2013-12-15 22:08:00,6.1,-5.5,30.36,West,270,0.0,0.0,58,0.00,,SKC,0.00,VWS V14.00,2013-12-16 06:08:00,
2013-12-15 22:10:00,6.1,-5.5,30.36,West,270,0.0,0.0,58,0.00,,SKC,0.00,VWS V14.00,2013-12-16 06:10:00,
2013-12-15 22:11:00,6.1,-5.5,30.36,West,270,0.0,0.0,58,0.00,,SKC,0.00,VWS V14.00,2013-12-16 06:11:00,
2013-12-15 22:12:00,6.1,-5.5,30.36,West,270,0.0,0.0,58,0.00,,SKC,0.00,VWS V14.00,2013-12-16 06:12:00,
2013-12-15 22:13:00,6.1,-5.5,30.36,West,270,0.0,0.0,58,0.00,,SKC,0.00,VWS V14.00,2013-12-16 06:13:00,
2013-12-15 22:15:00,6.1,-5.5,30.36,West,270,0.0,0.0,58,0.00,,SKC,0.00,VWS V14.00,2013-12-16 06:15:00,
2013-12-15 22:16:00,6.1,-5.5,30.36,West,270,0.0,0.0,58,0.00,,SKC,0.00,VWS V14.00,2013-12-16 06:16:00,
2013-12-15 22:17:00,6.1,-5.5,30.36,West,270,0.0,0.0,58,0.00,,SKC,0.00,VWS V14.00,2013-12-16 06:17:00,
2013-12-15 22:18:00,6.1,-5.5,30.36,West,270,0.0,0.0,58,0.00,,SKC,0.00,VWS V14.00,2013-12-16 06:18:00,
2013-12-15 22:19:00,5.9,-5.7,30.36,West,270,0.0,0.0,58,0.00,,SKC,0.00,VWS V14.00,2013-12-16 06:19:00,
2013-12-15 22:20:00,5.9,-5.7,30.36,West,270,0.0,0.0,58,0.00,,SKC,0.00,VWS V14.00,2013-12-16 06:20:00,
2013-12-15 22:21:00,5.9,-5.7,30.36,SW,225,0.0,0.0,58,0.00,,SKC,0.00,VWS V14.00,2013-12-16 06:21:00,
2013-12-15 22:22:00,5.9,-5.7,30.36,SW,225,0.0,0.0,58,0.00,,SKC,0.00,VWS V14.00,2013-12-16 06:22:00,
2013-12-15 22:23:00,5.9,-5.7,30.36,SW,225,2.7,2.7,58,0.00,,SKC,0.00,VWS V14.00,2013-12-16 06:23:00,
2013-12-15 22:24:00,5.9,-5.7,30.36,SW,225,0.0,0.0,58,0.00,,SKC,0.00,VWS V14.00,2013-12-16 06:24:00,
2013-12-15 22:25:00,5.9,-5.7,30.36,SW,225,0.0,0.0,58,0.00,,SKC,0.00,VWS V14.00,2013-12-16 06:25:00,
2013-12-15 22:26:00,5.9,-5.7,30.36,SW,225,2.2,2.2,58,0.00,,SKC,0.00,VWS V14.00,2013-12-16 06:26:00,
2013-12-15 22:27:00,5.9,-5.7,30.36,SW,225,1.6,1.6,58,0.00,,SKC,0.00,VWS V14.00,2013-12-16 06:27:00,
2013-12-15 22:28:00,5.9,-5.7,30.36,SW,225,0.0,0.0,58,0.00,,SKC,0.00,VWS V14.00,2013-12-16 06:28:00,
2013-12-15 22:30:00,5.9,-5.7,30.36,SW,225,0.0,0.0,58,0.00,,SKC,0.00,VWS V14.00,2013-12-16 06:30:00,
2013-12-15 22:31:00,5.9,-5.7,30.36,SW,225,0.0,0.0,58,0.00,,SKC,0.00,VWS V14.00,2013-12-16 06:31:00,
2013-12-15 22:32:00,5.9,-5.7,30.36,SW,225,0.0,0.0,58,0.00,,SKC,0.00,VWS V14.00,2013-12-16 06:32:00,
2013-12-15 22:33:00,5.9,-5.7,30.36,SW,225,0.0,0.0,58,0.00,,SKC,0.00,VWS V14.00,2013-12-16 06:33:00,
2013-12-15 22:34:00,5.9,-5.7,30.36,SW,225,0.0,0.0,58,0.00,,SKC,0.00,VWS V14.00,2013-12-16 06:34:00,
2013-12-15 22:35:00,5.9,-5.7,30.36,SW,225,0.0,0.0,58,0.00,,SKC,0.00,VWS V14.00,2013-12-16 06:35:00,
2013-12-15 22:36:00,5.9,-5.7,30.36,SW,225,0.0,0.0,58,0.00,,SKC,0.00,VWS V14.00,2013-12-16 06:36:00,
2013-12-15 22:37:00,5.9,-5.7,30.36,SW,225,0.0,0.0,58,0.00,,SKC,0.00,VWS V14.00,2013-12-16 06:37:00,
2013-12-15 22:38:00,5.9,-5.7,30.36,SW,225,0.0,0.0,58,0.00,,SKC,0.00,VWS V14.00,2013-12-16 06:38:00,
2013-12-15 22:39:00,5.9,-5.7,30.36,SW,225,0.0,0.0,58,0.00,,SKC,0.00,VWS V14.00,2013-12-16 06:39:00,
2013-12-15 22:40:00,5.9,-5.7,30.36,SW,225,0.0,0.0,58,0.00,,SKC,0.00,VWS V14.00,2013-12-16 06:40:00,
2013-12-15 22:41:00,5.9,-5.7,30.36,SW,225,0.0,0.0,58,0.00,,SKC,0.00,VWS V14.00,2013-12-16 06:41:00,
2013-12-15 22:42:00,5.9,-5.7,30.36,SW,225,0.0,0.0,58,0.00,,SKC,0.00,VWS V14.00,2013-12-16 06:42:00,
2013-12-15 22:43:00,5.9,-5.7,30.36,SW,225,0.0,0.0,58,0.00,,SKC,0.00,VWS V14.00,2013-12-16 06:43:00,
2013-12-15 22:44:00,5.9,-5.7,30.36,SW,225,0.0,0.0,58,0.00,,SKC,0.00,VWS V14.00,2013-12-16 06:44:00,
2013-12-15 22:45:00,5.9,-5.7,30.36,SW,225,0.0,0.0,58,0.00,,SKC,0.00,VWS V14.00,2013-12-16 06:45:00,
2013-12-15 22:46:00,5.9,-5.7,30.36,SW,225,0.0,0.0,58,0.00,,SKC,0.00,VWS V14.00,2013-12-16 06:46:00,
2013-12-15 22:47:00,5.9,-5.7,30.36,NNE,22,0.0,0.0,58,0.00,,SKC,0.00,VWS V14.00,2013-12-16 06:47:00,
2013-12-15 22:48:00,5.9,-5.7,30.36,NNE,22,0.0,0.0,58,0.00,,SKC,0.00,VWS V14.00,2013-12-16 06:48:00,
2013-12-15 22:49:00,5.9,-5.7,30.36,NNE,22,0.0,0.0,58,0.00,,SKC,0.00,VWS V14.00,2013-12-16 06:49:00,
2013-12-15 22:50:00,5.9,-5.7,30.36,NNE,22,0.0,0.0,58,0.00,,SKC,0.00,VWS V14.00,2013-12-16 06:50:00,
2013-12-15 22:51:00,5.9,-5.7,30.36,NNE,22,0.0,0.0,58,0.00,,SKC,0.00,VWS V14.00,2013-12-16 06:51:00,
2013-12-15 22:53:00,5.9,-5.7,30.36,NNE,22,0.0,0.0,58,0.00,,SKC,0.00,VWS V14.00,2013-12-16 06:53:00,
2013-12-15 22:54:00,5.9,-5.7,30.36,NNE,22,0.0,0.0,58,0.00,,SKC,0.00,VWS V14.00,2013-12-16 06:54:00,
2013-12-15 22:55:00,5.9,-5.7,30.36,NNE,22,0.0,0.0,58,0.00,,SKC,0.00,VWS V14.00,2013-12-16 06:55:00,
2013-12-15 22:56:00,5.9,-5.7,30.36,NNE,22,0.0,0.0,58,0.00,,SKC,0.00,VWS V14.00,2013-12-16 06:56:00,
2013-12-15 22:58:00,5.8,-5.8,30.36,NNE,22,0.0,0.0,58,0.00,,SKC,0.00,VWS V14.00,2013-12-16 06:58:00,
2013-12-15 22:59:00,5.8,-5.8,30.36,NNE,22,0.0,0.0,58,0.00,,SKC,0.00,VWS V14.00,2013-12-16 06:59:00,
2013-12-15 23:00:00,5.6,-6.0,30.36,NNE,22,0.0,0.0,58,0.00,,SKC,0.00,VWS V14.00,2013-12-16 07:00:00,
2013-12-15 23:01:00,5.6,-6.0,30.36,NNE,22,0.0,0.0,58,0.00,,SKC,0.00,VWS V14.00,2013-12-16 07:01:00,
2013-12-15 23:03:00,5.6,-6.0,30.36,NNE,22,0.0,0.0,58,0.00,,SKC,0.00,VWS V14.00,2013-12-16 07:03:00,
2013-12-15 23:04:00,5.6,-6.0,30.36,NNE,22,0.0,0.0,58,0.00,,SKC,0.00,VWS V14.00,2013-12-16 07:04:00,
2013-12-15 23:05:00,5.6,-6.0,30.36,NNE,22,0.0,0.0,58,0.00,,SKC,0.00,VWS V14.00,2013-12-16 07:05:00,
2013-12-15 23:06:00,5.6,-6.0,30.36,NNE,22,0.0,0.0,58,0.00,,SKC,0.00,VWS V14.00,2013-12-16 07:06:00,
2013-12-15 23:07:00,5.8,-5.8,30.36,NNE,22,0.0,0.0,58,0.00,,SKC,0.00,VWS V14.00,2013-12-16 07:07:00,
2013-12-15 23:08:00,5.8,-5.8,30.36,NNE,22,0.0,0.0,58,0.00,,SKC,0.00,VWS V14.00,2013-12-16 07:08:00,
2013-12-15 23:09:00,5.8,-5.8,30.36,NNE,22,0.0,0.0,58,0.00,,SKC,0.00,VWS V14.00,2013-12-16 07:09:00,
2013-12-15 23:10:00,5.9,-5.7,30.36,NNE,22,0.0,0.0,58,0.00,,SKC,0.00,VWS V14.00,2013-12-16 07:10:00,
2013-12-15 23:11:00,5.9,-5.7,30.36,NNE,22,0.0,0.0,58,0.00,,SKC,0.00,VWS V14.00,2013-12-16 07:11:00,
2013-12-15 23:12:00,6.8,-4.8,30.36,NNE,22,0.0,0.0,58,0.00,,SKC,0.00,VWS V14.00,2013-12-16 07:12:00,
2013-12-15 23:13:00,7.6,-4.1,30.36,NNE,22,0.0,0.0,58,0.00,,SKC,0.00,VWS V14.00,2013-12-16 07:13:00,
2013-12-15 23:14:00,7.7,-4.0,30.36,NNE,22,0.0,0.0,58,0.00,,SKC,0.00,VWS V14.00,2013-12-16 07:14:00,
2013-12-15 23:15:00,7.7,-4.0,30.36,NNE,22,0.0,0.0,58,0.00,,SKC,0.00,VWS V14.00,2013-12-16 07:15:00,
2013-12-15 23:17:00,7.6,-4.1,30.36,NNE,22,0.0,0.0,58,0.00,,SKC,0.00,VWS V14.00,2013-12-16 07:17:00,
2013-12-15 23:19:00,7.2,-4.5,30.36,NNE,22,0.0,0.0,58,0.00,,SKC,0.00,VWS V14.00,2013-12-16 07:19:00,